<?xml version="1.0" encoding="UTF-8" standalone="no" ?>
<gpx xmlns="http://www.topografix.com/GPX/1/1" xmlns:xsi="http://www.w3.org/2001/XMLSchema-instance" xsi:schemaLocation="http://www.topografix.com/GPX/1/1 http://www.topografix.com/GPX/1/1/gpx.xsd" version="1.1" creator="VisuGPX - https://www.visugpx.com">
  <metadata>
    <name>Moulins et Kiosques en Pays d\'Avesnes</name>
    <desc><![CDATA[L\'itinéraire part à la découverte de 4 kiosques et 4 moulins à eau. Vous emprunterez également l\'ancienne voie ferrée reconvertie en voie verte. Ce parcours vallonné sera effectué par les cyclotouristes avertis tandis que sa variante courte sera accessible à la famille. Restez prudent le long de la RD 164 et 104.]]></desc>
  </metadata>
  <trk>
    <name><![CDATA[MOULINS ET KIOSQUES EN PAYS D'AVESNE]]></name>
    <trkseg>
      <trkpt lat="50.17432" lon="4.0919">
        <ele>180.38</ele>
        <time>2011-10-07T08:54:09Z</time>
      </trkpt>
      <trkpt lat="50.17429" lon="4.09127">
        <ele>178.46</ele>
        <time>2011-10-07T08:54:17Z</time>
      </trkpt>
      <trkpt lat="50.17437" lon="4.0903">
        <ele>178.46</ele>
        <time>2011-10-07T08:54:21Z</time>
      </trkpt>
      <trkpt lat="50.1744" lon="4.08999">
        <ele>177.02</ele>
        <time>2011-10-07T08:54:23Z</time>
      </trkpt>
      <trkpt lat="50.17446" lon="4.08916">
        <ele>177.02</ele>
        <time>2011-10-07T08:54:30Z</time>
      </trkpt>
      <trkpt lat="50.17447" lon="4.08895">
        <ele>178.46</ele>
        <time>2011-10-07T08:54:34Z</time>
      </trkpt>
      <trkpt lat="50.17449" lon="4.08872">
        <ele>179.42</ele>
        <time>2011-10-07T08:54:38Z</time>
      </trkpt>
      <trkpt lat="50.17451" lon="4.08829">
        <ele>182.31</ele>
        <time>2011-10-07T08:54:42Z</time>
      </trkpt>
      <trkpt lat="50.1745" lon="4.08803">
        <ele>183.75</ele>
        <time>2011-10-07T08:54:44Z</time>
      </trkpt>
      <trkpt lat="50.1745" lon="4.08763">
        <ele>186.15</ele>
        <time>2011-10-07T08:54:47Z</time>
      </trkpt>
      <trkpt lat="50.17448" lon="4.08713">
        <ele>188.08</ele>
        <time>2011-10-07T08:54:51Z</time>
      </trkpt>
      <trkpt lat="50.17447" lon="4.08704">
        <ele>188.56</ele>
        <time>2011-10-07T08:54:52Z</time>
      </trkpt>
      <trkpt lat="50.17428" lon="4.08679">
        <ele>190</ele>
        <time>2011-10-07T08:54:57Z</time>
      </trkpt>
      <trkpt lat="50.17389" lon="4.08658">
        <ele>192.88</ele>
        <time>2011-10-07T08:55:04Z</time>
      </trkpt>
      <trkpt lat="50.17369" lon="4.08644">
        <ele>194.8</ele>
        <time>2011-10-07T08:55:07Z</time>
      </trkpt>
      <trkpt lat="50.17346" lon="4.08602">
        <ele>196.25</ele>
        <time>2011-10-07T08:55:11Z</time>
      </trkpt>
      <trkpt lat="50.17343" lon="4.08587">
        <ele>197.21</ele>
        <time>2011-10-07T08:55:12Z</time>
      </trkpt>
      <trkpt lat="50.17326" lon="4.08473">
        <ele>200.09</ele>
        <time>2011-10-07T08:55:18Z</time>
      </trkpt>
      <trkpt lat="50.1731" lon="4.08354">
        <ele>202.49</ele>
        <time>2011-10-07T08:55:24Z</time>
      </trkpt>
      <trkpt lat="50.17293" lon="4.08227">
        <ele>202.49</ele>
        <time>2011-10-07T08:55:30Z</time>
      </trkpt>
      <trkpt lat="50.17272" lon="4.08075">
        <ele>200.57</ele>
        <time>2011-10-07T08:55:38Z</time>
      </trkpt>
      <trkpt lat="50.17257" lon="4.07974">
        <ele>198.65</ele>
        <time>2011-10-07T08:55:44Z</time>
      </trkpt>
      <trkpt lat="50.17249" lon="4.07914">
        <ele>197.21</ele>
        <time>2011-10-07T08:55:48Z</time>
      </trkpt>
      <trkpt lat="50.16245" lon="4.07134">
        <ele>208.74</ele>
        <time>2011-10-07T08:58:05Z</time>
      </trkpt>
      <trkpt lat="50.16245" lon="4.07134">
        <ele>208.74</ele>
        <time>2011-10-07T08:58:06Z</time>
      </trkpt>
      <trkpt lat="50.16243" lon="4.07144">
        <ele>210.19</ele>
        <time>2011-10-07T08:58:23Z</time>
      </trkpt>
      <trkpt lat="50.1624" lon="4.07146">
        <ele>209.22</ele>
        <time>2011-10-07T08:58:41Z</time>
      </trkpt>
      <trkpt lat="50.16241" lon="4.07146">
        <ele>209.22</ele>
        <time>2011-10-07T08:58:46Z</time>
      </trkpt>
      <trkpt lat="50.15294" lon="4.0694">
        <ele>213.07</ele>
        <time>2011-10-07T09:01:37Z</time>
      </trkpt>
      <trkpt lat="50.15297" lon="4.06938">
        <ele>213.55</ele>
        <time>2011-10-07T09:01:38Z</time>
      </trkpt>
      <trkpt lat="50.15301" lon="4.06935">
        <ele>213.55</ele>
        <time>2011-10-07T09:01:52Z</time>
      </trkpt>
      <trkpt lat="50.153" lon="4.06935">
        <ele>213.55</ele>
        <time>2011-10-07T09:02:04Z</time>
      </trkpt>
      <trkpt lat="50.153" lon="4.06935">
        <ele>213.55</ele>
        <time>2011-10-07T09:02:14Z</time>
      </trkpt>
      <trkpt lat="50.153" lon="4.06934">
        <ele>213.55</ele>
        <time>2011-10-07T09:02:15Z</time>
      </trkpt>
      <trkpt lat="50.15296" lon="4.06929">
        <ele>214.03</ele>
        <time>2011-10-07T09:02:18Z</time>
      </trkpt>
      <trkpt lat="50.15288" lon="4.069">
        <ele>214.99</ele>
        <time>2011-10-07T09:02:22Z</time>
      </trkpt>
      <trkpt lat="50.15276" lon="4.06842">
        <ele>214.51</ele>
        <time>2011-10-07T09:02:26Z</time>
      </trkpt>
      <trkpt lat="50.15256" lon="4.06754">
        <ele>215.47</ele>
        <time>2011-10-07T09:02:30Z</time>
      </trkpt>
      <trkpt lat="50.15222" lon="4.06604">
        <ele>214.51</ele>
        <time>2011-10-07T09:02:36Z</time>
      </trkpt>
      <trkpt lat="50.15198" lon="4.065">
        <ele>212.59</ele>
        <time>2011-10-07T09:02:40Z</time>
      </trkpt>
      <trkpt lat="50.15181" lon="4.06424">
        <ele>210.67</ele>
        <time>2011-10-07T09:02:43Z</time>
      </trkpt>
      <trkpt lat="50.15134" lon="4.06219">
        <ele>207.78</ele>
        <time>2011-10-07T09:02:51Z</time>
      </trkpt>
      <trkpt lat="50.15112" lon="4.0612">
        <ele>203.94</ele>
        <time>2011-10-07T09:02:55Z</time>
      </trkpt>
      <trkpt lat="50.15107" lon="4.06096">
        <ele>203.46</ele>
        <time>2011-10-07T09:02:56Z</time>
      </trkpt>
      <trkpt lat="50.15091" lon="4.06026">
        <ele>202.01</ele>
        <time>2011-10-07T09:02:59Z</time>
      </trkpt>
      <trkpt lat="50.1507" lon="4.05939">
        <ele>198.65</ele>
        <time>2011-10-07T09:03:03Z</time>
      </trkpt>
      <trkpt lat="50.15066" lon="4.05918">
        <ele>198.17</ele>
        <time>2011-10-07T09:03:04Z</time>
      </trkpt>
      <trkpt lat="50.15056" lon="4.05829">
        <ele>195.28</ele>
        <time>2011-10-07T09:03:08Z</time>
      </trkpt>
      <trkpt lat="50.15047" lon="4.05738">
        <ele>191.44</ele>
        <time>2011-10-07T09:03:12Z</time>
      </trkpt>
      <trkpt lat="50.15043" lon="4.05715">
        <ele>190.96</ele>
        <time>2011-10-07T09:03:13Z</time>
      </trkpt>
      <trkpt lat="50.15018" lon="4.0563">
        <ele>190.48</ele>
        <time>2011-10-07T09:03:17Z</time>
      </trkpt>
      <trkpt lat="50.14959" lon="4.05493">
        <ele>194.32</ele>
        <time>2011-10-07T09:03:24Z</time>
      </trkpt>
      <trkpt lat="50.14921" lon="4.05395">
        <ele>197.69</ele>
        <time>2011-10-07T09:03:29Z</time>
      </trkpt>
      <trkpt lat="50.14903" lon="4.05336">
        <ele>199.13</ele>
        <time>2011-10-07T09:03:32Z</time>
      </trkpt>
      <trkpt lat="50.14874" lon="4.05217">
        <ele>201.53</ele>
        <time>2011-10-07T09:03:38Z</time>
      </trkpt>
      <trkpt lat="50.14854" lon="4.0508">
        <ele>201.05</ele>
        <time>2011-10-07T09:03:44Z</time>
      </trkpt>
      <trkpt lat="50.14821" lon="4.0487">
        <ele>198.65</ele>
        <time>2011-10-07T09:03:53Z</time>
      </trkpt>
      <trkpt lat="50.14799" lon="4.04723">
        <ele>197.69</ele>
        <time>2011-10-07T09:04:00Z</time>
      </trkpt>
      <trkpt lat="50.14795" lon="4.04683">
        <ele>196.25</ele>
        <time>2011-10-07T09:04:02Z</time>
      </trkpt>
      <trkpt lat="50.14802" lon="4.04579">
        <ele>194.8</ele>
        <time>2011-10-07T09:04:07Z</time>
      </trkpt>
      <trkpt lat="50.14824" lon="4.04444">
        <ele>191.44</ele>
        <time>2011-10-07T09:04:13Z</time>
      </trkpt>
      <trkpt lat="50.14829" lon="4.04423">
        <ele>190.96</ele>
        <time>2011-10-07T09:04:14Z</time>
      </trkpt>
      <trkpt lat="50.14829" lon="4.0434">
        <ele>190.48</ele>
        <time>2011-10-07T09:04:18Z</time>
      </trkpt>
      <trkpt lat="50.1481" lon="4.04219">
        <ele>189.52</ele>
        <time>2011-10-07T09:04:23Z</time>
      </trkpt>
      <trkpt lat="50.14779" lon="4.04113">
        <ele>189.52</ele>
        <time>2011-10-07T09:04:28Z</time>
      </trkpt>
      <trkpt lat="50.14738" lon="4.03999">
        <ele>188.08</ele>
        <time>2011-10-07T09:04:34Z</time>
      </trkpt>
      <trkpt lat="50.14698" lon="4.03863">
        <ele>185.67</ele>
        <time>2011-10-07T09:04:42Z</time>
      </trkpt>
      <trkpt lat="50.14689" lon="4.03828">
        <ele>184.23</ele>
        <time>2011-10-07T09:04:45Z</time>
      </trkpt>
      <trkpt lat="50.14692" lon="4.03771">
        <ele>182.79</ele>
        <time>2011-10-07T09:04:50Z</time>
      </trkpt>
      <trkpt lat="50.14705" lon="4.0373">
        <ele>181.35</ele>
        <time>2011-10-07T09:04:53Z</time>
      </trkpt>
      <trkpt lat="50.14718" lon="4.03687">
        <ele>179.9</ele>
        <time>2011-10-07T09:04:56Z</time>
      </trkpt>
      <trkpt lat="50.1474" lon="4.03632">
        <ele>177.02</ele>
        <time>2011-10-07T09:05:01Z</time>
      </trkpt>
      <trkpt lat="50.14741" lon="4.03611">
        <ele>177.98</ele>
        <time>2011-10-07T09:05:05Z</time>
      </trkpt>
      <trkpt lat="50.14733" lon="4.03605">
        <ele>177.5</ele>
        <time>2011-10-07T09:05:07Z</time>
      </trkpt>
      <trkpt lat="50.14689" lon="4.03589">
        <ele>175.1</ele>
        <time>2011-10-07T09:05:13Z</time>
      </trkpt>
      <trkpt lat="50.1465" lon="4.03582">
        <ele>174.14</ele>
        <time>2011-10-07T09:05:18Z</time>
      </trkpt>
      <trkpt lat="50.14624" lon="4.03555">
        <ele>176.06</ele>
        <time>2011-10-07T09:05:22Z</time>
      </trkpt>
      <trkpt lat="50.14619" lon="4.03544">
        <ele>176.06</ele>
        <time>2011-10-07T09:05:23Z</time>
      </trkpt>
      <trkpt lat="50.14599" lon="4.03497">
        <ele>176.54</ele>
        <time>2011-10-07T09:05:27Z</time>
      </trkpt>
      <trkpt lat="50.14566" lon="4.03454">
        <ele>177.02</ele>
        <time>2011-10-07T09:05:33Z</time>
      </trkpt>
      <trkpt lat="50.14524" lon="4.034">
        <ele>176.06</ele>
        <time>2011-10-07T09:05:38Z</time>
      </trkpt>
      <trkpt lat="50.14473" lon="4.03321">
        <ele>176.06</ele>
        <time>2011-10-07T09:05:44Z</time>
      </trkpt>
      <trkpt lat="50.14436" lon="4.03262">
        <ele>176.54</ele>
        <time>2011-10-07T09:05:49Z</time>
      </trkpt>
      <trkpt lat="50.14417" lon="4.03221">
        <ele>177.98</ele>
        <time>2011-10-07T09:05:52Z</time>
      </trkpt>
      <trkpt lat="50.14374" lon="4.03125">
        <ele>178.94</ele>
        <time>2011-10-07T09:05:58Z</time>
      </trkpt>
      <trkpt lat="50.14317" lon="4.03006">
        <ele>177.02</ele>
        <time>2011-10-07T09:06:06Z</time>
      </trkpt>
      <trkpt lat="50.14286" lon="4.02942">
        <ele>174.62</ele>
        <time>2011-10-07T09:06:12Z</time>
      </trkpt>
      <trkpt lat="50.14283" lon="4.02935">
        <ele>174.14</ele>
        <time>2011-10-07T09:06:13Z</time>
      </trkpt>
      <trkpt lat="50.14286" lon="4.029">
        <ele>172.21</ele>
        <time>2011-10-07T09:06:18Z</time>
      </trkpt>
      <trkpt lat="50.14301" lon="4.02883">
        <ele>171.73</ele>
        <time>2011-10-07T09:06:21Z</time>
      </trkpt>
      <trkpt lat="50.14347" lon="4.02844">
        <ele>169.33</ele>
        <time>2011-10-07T09:06:28Z</time>
      </trkpt>
      <trkpt lat="50.14401" lon="4.02788">
        <ele>166.93</ele>
        <time>2011-10-07T09:06:37Z</time>
      </trkpt>
      <trkpt lat="50.14405" lon="4.0278">
        <ele>167.41</ele>
        <time>2011-10-07T09:06:38Z</time>
      </trkpt>
      <trkpt lat="50.14419" lon="4.02728">
        <ele>167.89</ele>
        <time>2011-10-07T09:06:43Z</time>
      </trkpt>
      <trkpt lat="50.14418" lon="4.02716">
        <ele>168.37</ele>
        <time>2011-10-07T09:06:44Z</time>
      </trkpt>
      <trkpt lat="50.14416" lon="4.02684">
        <ele>170.29</ele>
        <time>2011-10-07T09:06:49Z</time>
      </trkpt>
      <trkpt lat="50.14415" lon="4.02672">
        <ele>171.25</ele>
        <time>2011-10-07T09:06:53Z</time>
      </trkpt>
      <trkpt lat="50.14394" lon="4.02636">
        <ele>169.81</ele>
        <time>2011-10-07T09:06:58Z</time>
      </trkpt>
      <trkpt lat="50.14363" lon="4.02585">
        <ele>167.41</ele>
        <time>2011-10-07T09:07:03Z</time>
      </trkpt>
      <trkpt lat="50.14352" lon="4.02565">
        <ele>167.41</ele>
        <time>2011-10-07T09:07:05Z</time>
      </trkpt>
      <trkpt lat="50.14338" lon="4.02518">
        <ele>166.45</ele>
        <time>2011-10-07T09:07:09Z</time>
      </trkpt>
      <trkpt lat="50.14333" lon="4.02488">
        <ele>166.45</ele>
        <time>2011-10-07T09:07:11Z</time>
      </trkpt>
      <trkpt lat="50.14319" lon="4.02443">
        <ele>166.93</ele>
        <time>2011-10-07T09:07:14Z</time>
      </trkpt>
      <trkpt lat="50.14295" lon="4.02397">
        <ele>168.85</ele>
        <time>2011-10-07T09:07:17Z</time>
      </trkpt>
      <trkpt lat="50.14281" lon="4.02369">
        <ele>169.81</ele>
        <time>2011-10-07T09:07:19Z</time>
      </trkpt>
      <trkpt lat="50.14259" lon="4.02282">
        <ele>171.73</ele>
        <time>2011-10-07T09:07:25Z</time>
      </trkpt>
      <trkpt lat="50.14239" lon="4.02207">
        <ele>172.21</ele>
        <time>2011-10-07T09:07:31Z</time>
      </trkpt>
      <trkpt lat="50.14234" lon="4.02188">
        <ele>171.73</ele>
        <time>2011-10-07T09:07:33Z</time>
      </trkpt>
      <trkpt lat="50.14241" lon="4.02162">
        <ele>172.69</ele>
        <time>2011-10-07T09:07:38Z</time>
      </trkpt>
      <trkpt lat="50.14288" lon="4.02132">
        <ele>176.54</ele>
        <time>2011-10-07T09:07:45Z</time>
      </trkpt>
      <trkpt lat="50.14331" lon="4.02104">
        <ele>179.9</ele>
        <time>2011-10-07T09:07:50Z</time>
      </trkpt>
      <trkpt lat="50.14349" lon="4.02092">
        <ele>180.87</ele>
        <time>2011-10-07T09:07:52Z</time>
      </trkpt>
      <trkpt lat="50.14391" lon="4.02062">
        <ele>183.27</ele>
        <time>2011-10-07T09:07:56Z</time>
      </trkpt>
      <trkpt lat="50.14402" lon="4.02053">
        <ele>183.27</ele>
        <time>2011-10-07T09:07:57Z</time>
      </trkpt>
      <trkpt lat="50.14486" lon="4.01978">
        <ele>185.67</ele>
        <time>2011-10-07T09:08:04Z</time>
      </trkpt>
      <trkpt lat="50.14568" lon="4.01895">
        <ele>188.56</ele>
        <time>2011-10-07T09:08:11Z</time>
      </trkpt>
      <trkpt lat="50.1461" lon="4.01843">
        <ele>190</ele>
        <time>2011-10-07T09:08:16Z</time>
      </trkpt>
      <trkpt lat="50.14632" lon="4.01818">
        <ele>190.48</ele>
        <time>2011-10-07T09:08:20Z</time>
      </trkpt>
      <trkpt lat="50.1465" lon="4.018">
        <ele>190.48</ele>
        <time>2011-10-07T09:08:24Z</time>
      </trkpt>
      <trkpt lat="50.14672" lon="4.01788">
        <ele>192.4</ele>
        <time>2011-10-07T09:08:27Z</time>
      </trkpt>
      <trkpt lat="50.14721" lon="4.01777">
        <ele>194.8</ele>
        <time>2011-10-07T09:08:32Z</time>
      </trkpt>
      <trkpt lat="50.14743" lon="4.01769">
        <ele>195.77</ele>
        <time>2011-10-07T09:08:34Z</time>
      </trkpt>
      <trkpt lat="50.14815" lon="4.01739">
        <ele>198.17</ele>
        <time>2011-10-07T09:08:40Z</time>
      </trkpt>
      <trkpt lat="50.14874" lon="4.01713">
        <ele>199.61</ele>
        <time>2011-10-07T09:08:45Z</time>
      </trkpt>
      <trkpt lat="50.14948" lon="4.01667">
        <ele>199.13</ele>
        <time>2011-10-07T09:08:51Z</time>
      </trkpt>
      <trkpt lat="50.15016" lon="4.01642">
        <ele>199.13</ele>
        <time>2011-10-07T09:08:56Z</time>
      </trkpt>
      <trkpt lat="50.15094" lon="4.01615">
        <ele>198.17</ele>
        <time>2011-10-07T09:09:02Z</time>
      </trkpt>
      <trkpt lat="50.15183" lon="4.01554">
        <ele>198.17</ele>
        <time>2011-10-07T09:09:09Z</time>
      </trkpt>
      <trkpt lat="50.15237" lon="4.01523">
        <ele>202.49</ele>
        <time>2011-10-07T09:09:13Z</time>
      </trkpt>
      <trkpt lat="50.15291" lon="4.01493">
        <ele>205.86</ele>
        <time>2011-10-07T09:09:17Z</time>
      </trkpt>
      <trkpt lat="50.15343" lon="4.01465">
        <ele>209.22</ele>
        <time>2011-10-07T09:09:21Z</time>
      </trkpt>
      <trkpt lat="50.15393" lon="4.01439">
        <ele>211.15</ele>
        <time>2011-10-07T09:09:25Z</time>
      </trkpt>
      <trkpt lat="50.15471" lon="4.014">
        <ele>213.55</ele>
        <time>2011-10-07T09:09:31Z</time>
      </trkpt>
      <trkpt lat="50.15533" lon="4.01367">
        <ele>212.11</ele>
        <time>2011-10-07T09:09:36Z</time>
      </trkpt>
      <trkpt lat="50.15558" lon="4.01355">
        <ele>210.19</ele>
        <time>2011-10-07T09:09:39Z</time>
      </trkpt>
      <trkpt lat="50.15572" lon="4.01359">
        <ele>210.19</ele>
        <time>2011-10-07T09:09:44Z</time>
      </trkpt>
      <trkpt lat="50.15573" lon="4.0136">
        <ele>209.7</ele>
        <time>2011-10-07T09:09:50Z</time>
      </trkpt>
      <trkpt lat="50.15573" lon="4.0136">
        <ele>210.19</ele>
        <time>2011-10-07T09:09:51Z</time>
      </trkpt>
      <trkpt lat="50.15569" lon="4.01346">
        <ele>209.7</ele>
        <time>2011-10-07T09:09:57Z</time>
      </trkpt>
      <trkpt lat="50.15568" lon="4.01346">
        <ele>209.7</ele>
        <time>2011-10-07T09:10:00Z</time>
      </trkpt>
      <trkpt lat="50.15564" lon="4.01338">
        <ele>209.7</ele>
        <time>2011-10-07T09:10:03Z</time>
      </trkpt>
      <trkpt lat="50.15552" lon="4.01297">
        <ele>210.67</ele>
        <time>2011-10-07T09:10:08Z</time>
      </trkpt>
      <trkpt lat="50.15532" lon="4.01223">
        <ele>210.19</ele>
        <time>2011-10-07T09:10:13Z</time>
      </trkpt>
      <trkpt lat="50.15511" lon="4.01134">
        <ele>209.22</ele>
        <time>2011-10-07T09:10:19Z</time>
      </trkpt>
      <trkpt lat="50.15493" lon="4.01068">
        <ele>209.7</ele>
        <time>2011-10-07T09:10:24Z</time>
      </trkpt>
      <trkpt lat="50.15468" lon="4.0098">
        <ele>211.15</ele>
        <time>2011-10-07T09:10:29Z</time>
      </trkpt>
      <trkpt lat="50.15428" lon="4.00871">
        <ele>212.59</ele>
        <time>2011-10-07T09:10:35Z</time>
      </trkpt>
      <trkpt lat="50.15413" lon="4.00832">
        <ele>213.55</ele>
        <time>2011-10-07T09:10:37Z</time>
      </trkpt>
      <trkpt lat="50.15376" lon="4.00723">
        <ele>214.51</ele>
        <time>2011-10-07T09:10:42Z</time>
      </trkpt>
      <trkpt lat="50.15349" lon="4.00636">
        <ele>216.43</ele>
        <time>2011-10-07T09:10:46Z</time>
      </trkpt>
      <trkpt lat="50.15342" lon="4.00616">
        <ele>216.91</ele>
        <time>2011-10-07T09:10:47Z</time>
      </trkpt>
      <trkpt lat="50.153" lon="4.00483">
        <ele>215.47</ele>
        <time>2011-10-07T09:10:53Z</time>
      </trkpt>
      <trkpt lat="50.15237" lon="4.00297">
        <ele>214.03</ele>
        <time>2011-10-07T09:11:01Z</time>
      </trkpt>
      <trkpt lat="50.15191" lon="4.00157">
        <ele>214.51</ele>
        <time>2011-10-07T09:11:07Z</time>
      </trkpt>
      <trkpt lat="50.15147" lon="4.0002">
        <ele>214.51</ele>
        <time>2011-10-07T09:11:13Z</time>
      </trkpt>
      <trkpt lat="50.15104" lon="3.99887">
        <ele>212.59</ele>
        <time>2011-10-07T09:11:19Z</time>
      </trkpt>
      <trkpt lat="50.15062" lon="3.99792">
        <ele>211.15</ele>
        <time>2011-10-07T09:11:24Z</time>
      </trkpt>
      <trkpt lat="50.15011" lon="3.99719">
        <ele>210.67</ele>
        <time>2011-10-07T09:11:29Z</time>
      </trkpt>
      <trkpt lat="50.14989" lon="3.99691">
        <ele>208.74</ele>
        <time>2011-10-07T09:11:32Z</time>
      </trkpt>
      <trkpt lat="50.14971" lon="3.99671">
        <ele>207.3</ele>
        <time>2011-10-07T09:11:35Z</time>
      </trkpt>
      <trkpt lat="50.14937" lon="3.99641">
        <ele>205.86</ele>
        <time>2011-10-07T09:11:40Z</time>
      </trkpt>
      <trkpt lat="50.14899" lon="3.99602">
        <ele>205.38</ele>
        <time>2011-10-07T09:11:44Z</time>
      </trkpt>
      <trkpt lat="50.14851" lon="3.99552">
        <ele>203.94</ele>
        <time>2011-10-07T09:11:48Z</time>
      </trkpt>
      <trkpt lat="50.14813" lon="3.9951">
        <ele>202.49</ele>
        <time>2011-10-07T09:11:51Z</time>
      </trkpt>
      <trkpt lat="50.14699" lon="3.99387">
        <ele>199.61</ele>
        <time>2011-10-07T09:12:00Z</time>
      </trkpt>
      <trkpt lat="50.14656" lon="3.9934">
        <ele>197.69</ele>
        <time>2011-10-07T09:12:04Z</time>
      </trkpt>
      <trkpt lat="50.14611" lon="3.9929">
        <ele>195.28</ele>
        <time>2011-10-07T09:12:09Z</time>
      </trkpt>
      <trkpt lat="50.14552" lon="3.99231">
        <ele>192.88</ele>
        <time>2011-10-07T09:12:15Z</time>
      </trkpt>
      <trkpt lat="50.1454" lon="3.99219">
        <ele>192.88</ele>
        <time>2011-10-07T09:12:16Z</time>
      </trkpt>
      <trkpt lat="50.14515" lon="3.99194">
        <ele>191.44</ele>
        <time>2011-10-07T09:12:18Z</time>
      </trkpt>
      <trkpt lat="50.14426" lon="3.99097">
        <ele>189.04</ele>
        <time>2011-10-07T09:12:25Z</time>
      </trkpt>
      <trkpt lat="50.14388" lon="3.99062">
        <ele>187.11</ele>
        <time>2011-10-07T09:12:28Z</time>
      </trkpt>
      <trkpt lat="50.14342" lon="3.99016">
        <ele>183.27</ele>
        <time>2011-10-07T09:12:32Z</time>
      </trkpt>
      <trkpt lat="50.14331" lon="3.99006">
        <ele>182.79</ele>
        <time>2011-10-07T09:12:33Z</time>
      </trkpt>
      <trkpt lat="50.14292" lon="3.98964">
        <ele>183.27</ele>
        <time>2011-10-07T09:12:37Z</time>
      </trkpt>
      <trkpt lat="50.14276" lon="3.98936">
        <ele>183.75</ele>
        <time>2011-10-07T09:12:39Z</time>
      </trkpt>
      <trkpt lat="50.14245" lon="3.98864">
        <ele>187.59</ele>
        <time>2011-10-07T09:12:43Z</time>
      </trkpt>
      <trkpt lat="50.14237" lon="3.98845">
        <ele>187.59</ele>
        <time>2011-10-07T09:12:44Z</time>
      </trkpt>
      <trkpt lat="50.14178" lon="3.98738">
        <ele>190.48</ele>
        <time>2011-10-07T09:12:50Z</time>
      </trkpt>
      <trkpt lat="50.14108" lon="3.9861">
        <ele>192.4</ele>
        <time>2011-10-07T09:12:57Z</time>
      </trkpt>
      <trkpt lat="50.14038" lon="3.98476">
        <ele>192.4</ele>
        <time>2011-10-07T09:13:04Z</time>
      </trkpt>
      <trkpt lat="50.13986" lon="3.98375">
        <ele>191.44</ele>
        <time>2011-10-07T09:13:09Z</time>
      </trkpt>
      <trkpt lat="50.1395" lon="3.9829">
        <ele>190.96</ele>
        <time>2011-10-07T09:13:13Z</time>
      </trkpt>
      <trkpt lat="50.1393" lon="3.98233">
        <ele>190</ele>
        <time>2011-10-07T09:13:16Z</time>
      </trkpt>
      <trkpt lat="50.13897" lon="3.98185">
        <ele>189.52</ele>
        <time>2011-10-07T09:13:21Z</time>
      </trkpt>
      <trkpt lat="50.13855" lon="3.98129">
        <ele>188.56</ele>
        <time>2011-10-07T09:13:27Z</time>
      </trkpt>
      <trkpt lat="50.13804" lon="3.98073">
        <ele>188.08</ele>
        <time>2011-10-07T09:13:33Z</time>
      </trkpt>
      <trkpt lat="50.13747" lon="3.98013">
        <ele>187.11</ele>
        <time>2011-10-07T09:13:38Z</time>
      </trkpt>
      <trkpt lat="50.13656" lon="3.97918">
        <ele>185.67</ele>
        <time>2011-10-07T09:13:45Z</time>
      </trkpt>
      <trkpt lat="50.13554" lon="3.97806">
        <ele>185.19</ele>
        <time>2011-10-07T09:13:53Z</time>
      </trkpt>
      <trkpt lat="50.1348" lon="3.9772">
        <ele>181.83</ele>
        <time>2011-10-07T09:13:59Z</time>
      </trkpt>
      <trkpt lat="50.13424" lon="3.97676">
        <ele>181.35</ele>
        <time>2011-10-07T09:14:03Z</time>
      </trkpt>
      <trkpt lat="50.13358" lon="3.97614">
        <ele>179.42</ele>
        <time>2011-10-07T09:14:08Z</time>
      </trkpt>
      <trkpt lat="50.13296" lon="3.97534">
        <ele>176.54</ele>
        <time>2011-10-07T09:14:13Z</time>
      </trkpt>
      <trkpt lat="50.13216" lon="3.97425">
        <ele>172.69</ele>
        <time>2011-10-07T09:14:20Z</time>
      </trkpt>
      <trkpt lat="50.13205" lon="3.97408">
        <ele>172.69</ele>
        <time>2011-10-07T09:14:21Z</time>
      </trkpt>
      <trkpt lat="50.13147" lon="3.97327">
        <ele>169.33</ele>
        <time>2011-10-07T09:14:26Z</time>
      </trkpt>
      <trkpt lat="50.13093" lon="3.97249">
        <ele>166.93</ele>
        <time>2011-10-07T09:14:31Z</time>
      </trkpt>
      <trkpt lat="50.13038" lon="3.97164">
        <ele>164.52</ele>
        <time>2011-10-07T09:14:37Z</time>
      </trkpt>
      <trkpt lat="50.12988" lon="3.97083">
        <ele>163.08</ele>
        <time>2011-10-07T09:14:43Z</time>
      </trkpt>
      <trkpt lat="50.12945" lon="3.97004">
        <ele>160.2</ele>
        <time>2011-10-07T09:14:48Z</time>
      </trkpt>
      <trkpt lat="50.12893" lon="3.96923">
        <ele>157.79</ele>
        <time>2011-10-07T09:14:54Z</time>
      </trkpt>
      <trkpt lat="50.12885" lon="3.96911">
        <ele>157.79</ele>
        <time>2011-10-07T09:14:55Z</time>
      </trkpt>
      <trkpt lat="50.12846" lon="3.96861">
        <ele>155.39</ele>
        <time>2011-10-07T09:15:00Z</time>
      </trkpt>
      <trkpt lat="50.12834" lon="3.96848">
        <ele>154.43</ele>
        <time>2011-10-07T09:15:03Z</time>
      </trkpt>
      <trkpt lat="50.12831" lon="3.96846">
        <ele>154.43</ele>
        <time>2011-10-07T09:15:07Z</time>
      </trkpt>
      <trkpt lat="50.12831" lon="3.96846">
        <ele>153.95</ele>
        <time>2011-10-07T09:15:15Z</time>
      </trkpt>
      <trkpt lat="50.12816" lon="3.96836">
        <ele>153.95</ele>
        <time>2011-10-07T09:15:24Z</time>
      </trkpt>
      <trkpt lat="50.12801" lon="3.96825">
        <ele>153.47</ele>
        <time>2011-10-07T09:15:28Z</time>
      </trkpt>
      <trkpt lat="50.12769" lon="3.96817">
        <ele>150.58</ele>
        <time>2011-10-07T09:15:34Z</time>
      </trkpt>
      <trkpt lat="50.12762" lon="3.96821">
        <ele>150.58</ele>
        <time>2011-10-07T09:15:38Z</time>
      </trkpt>
      <trkpt lat="50.12762" lon="3.96822">
        <ele>150.58</ele>
        <time>2011-10-07T09:15:45Z</time>
      </trkpt>
      <trkpt lat="50.12751" lon="3.96831">
        <ele>150.58</ele>
        <time>2011-10-07T09:15:49Z</time>
      </trkpt>
      <trkpt lat="50.12724" lon="3.96835">
        <ele>151.06</ele>
        <time>2011-10-07T09:15:54Z</time>
      </trkpt>
      <trkpt lat="50.12666" lon="3.96816">
        <ele>147.7</ele>
        <time>2011-10-07T09:16:02Z</time>
      </trkpt>
      <trkpt lat="50.12659" lon="3.96815">
        <ele>147.22</ele>
        <time>2011-10-07T09:16:03Z</time>
      </trkpt>
      <trkpt lat="50.12635" lon="3.96812">
        <ele>145.78</ele>
        <time>2011-10-07T09:16:08Z</time>
      </trkpt>
      <trkpt lat="50.1263" lon="3.96809">
        <ele>145.3</ele>
        <time>2011-10-07T09:16:10Z</time>
      </trkpt>
      <trkpt lat="50.12637" lon="3.96761">
        <ele>146.74</ele>
        <time>2011-10-07T09:16:15Z</time>
      </trkpt>
      <trkpt lat="50.12645" lon="3.96679">
        <ele>149.62</ele>
        <time>2011-10-07T09:16:21Z</time>
      </trkpt>
      <trkpt lat="50.12655" lon="3.96575">
        <ele>148.66</ele>
        <time>2011-10-07T09:16:27Z</time>
      </trkpt>
      <trkpt lat="50.12665" lon="3.96499">
        <ele>147.7</ele>
        <time>2011-10-07T09:16:31Z</time>
      </trkpt>
      <trkpt lat="50.12656" lon="3.96398">
        <ele>148.18</ele>
        <time>2011-10-07T09:16:36Z</time>
      </trkpt>
      <trkpt lat="50.12639" lon="3.9631">
        <ele>147.7</ele>
        <time>2011-10-07T09:16:41Z</time>
      </trkpt>
      <trkpt lat="50.1262" lon="3.96226">
        <ele>148.66</ele>
        <time>2011-10-07T09:16:46Z</time>
      </trkpt>
      <trkpt lat="50.126" lon="3.961">
        <ele>148.18</ele>
        <time>2011-10-07T09:16:52Z</time>
      </trkpt>
      <trkpt lat="50.12582" lon="3.95952">
        <ele>147.7</ele>
        <time>2011-10-07T09:16:59Z</time>
      </trkpt>
      <trkpt lat="50.1258" lon="3.9594">
        <ele>147.22</ele>
        <time>2011-10-07T09:17:00Z</time>
      </trkpt>
      <trkpt lat="50.12568" lon="3.95919">
        <ele>146.26</ele>
        <time>2011-10-07T09:17:04Z</time>
      </trkpt>
      <trkpt lat="50.12533" lon="3.9591">
        <ele>145.3</ele>
        <time>2011-10-07T09:17:10Z</time>
      </trkpt>
      <trkpt lat="50.12483" lon="3.9591">
        <ele>145.78</ele>
        <time>2011-10-07T09:17:15Z</time>
      </trkpt>
      <trkpt lat="50.12417" lon="3.95926">
        <ele>145.78</ele>
        <time>2011-10-07T09:17:20Z</time>
      </trkpt>
      <trkpt lat="50.12363" lon="3.95943">
        <ele>145.78</ele>
        <time>2011-10-07T09:17:25Z</time>
      </trkpt>
      <trkpt lat="50.12332" lon="3.95949">
        <ele>145.3</ele>
        <time>2011-10-07T09:17:28Z</time>
      </trkpt>
      <trkpt lat="50.12295" lon="3.95935">
        <ele>147.22</ele>
        <time>2011-10-07T09:17:32Z</time>
      </trkpt>
      <trkpt lat="50.12287" lon="3.95924">
        <ele>147.22</ele>
        <time>2011-10-07T09:17:33Z</time>
      </trkpt>
      <trkpt lat="50.12281" lon="3.9591">
        <ele>147.7</ele>
        <time>2011-10-07T09:17:34Z</time>
      </trkpt>
      <trkpt lat="50.1225" lon="3.95819">
        <ele>148.18</ele>
        <time>2011-10-07T09:17:39Z</time>
      </trkpt>
      <trkpt lat="50.12205" lon="3.95682">
        <ele>147.7</ele>
        <time>2011-10-07T09:17:45Z</time>
      </trkpt>
      <trkpt lat="50.12154" lon="3.95511">
        <ele>147.7</ele>
        <time>2011-10-07T09:17:52Z</time>
      </trkpt>
      <trkpt lat="50.12108" lon="3.95312">
        <ele>146.74</ele>
        <time>2011-10-07T09:18:00Z</time>
      </trkpt>
      <trkpt lat="50.12082" lon="3.95185">
        <ele>145.78</ele>
        <time>2011-10-07T09:18:06Z</time>
      </trkpt>
      <trkpt lat="50.12071" lon="3.95129">
        <ele>145.3</ele>
        <time>2011-10-07T09:18:10Z</time>
      </trkpt>
      <trkpt lat="50.12047" lon="3.95054">
        <ele>149.14</ele>
        <time>2011-10-07T09:18:16Z</time>
      </trkpt>
      <trkpt lat="50.12016" lon="3.95003">
        <ele>152.03</ele>
        <time>2011-10-07T09:18:20Z</time>
      </trkpt>
      <trkpt lat="50.11987" lon="3.9497">
        <ele>155.39</ele>
        <time>2011-10-07T09:18:23Z</time>
      </trkpt>
      <trkpt lat="50.11957" lon="3.94942">
        <ele>157.31</ele>
        <time>2011-10-07T09:18:26Z</time>
      </trkpt>
      <trkpt lat="50.11922" lon="3.94908">
        <ele>159.72</ele>
        <time>2011-10-07T09:18:30Z</time>
      </trkpt>
      <trkpt lat="50.11884" lon="3.94889">
        <ele>162.6</ele>
        <time>2011-10-07T09:18:35Z</time>
      </trkpt>
      <trkpt lat="50.11868" lon="3.94887">
        <ele>162.6</ele>
        <time>2011-10-07T09:18:37Z</time>
      </trkpt>
      <trkpt lat="50.11843" lon="3.94868">
        <ele>163.08</ele>
        <time>2011-10-07T09:18:41Z</time>
      </trkpt>
      <trkpt lat="50.11839" lon="3.94832">
        <ele>163.08</ele>
        <time>2011-10-07T09:18:44Z</time>
      </trkpt>
      <trkpt lat="50.11842" lon="3.94716">
        <ele>161.16</ele>
        <time>2011-10-07T09:18:53Z</time>
      </trkpt>
      <trkpt lat="50.11845" lon="3.94629">
        <ele>158.27</ele>
        <time>2011-10-07T09:26:55Z</time>
      </trkpt>
      <trkpt lat="50.11831" lon="3.94632">
        <ele>158.27</ele>
        <time>2011-10-07T09:26:59Z</time>
      </trkpt>
      <trkpt lat="50.11808" lon="3.9466">
        <ele>159.72</ele>
        <time>2011-10-07T09:27:07Z</time>
      </trkpt>
      <trkpt lat="50.11802" lon="3.94665">
        <ele>160.2</ele>
        <time>2011-10-07T09:27:09Z</time>
      </trkpt>
      <trkpt lat="50.11769" lon="3.94676">
        <ele>160.68</ele>
        <time>2011-10-07T09:27:17Z</time>
      </trkpt>
      <trkpt lat="50.1175" lon="3.94709">
        <ele>161.64</ele>
        <time>2011-10-07T09:27:23Z</time>
      </trkpt>
      <trkpt lat="50.11748" lon="3.94781">
        <ele>162.12</ele>
        <time>2011-10-07T09:27:30Z</time>
      </trkpt>
      <trkpt lat="50.11759" lon="3.9487">
        <ele>162.12</ele>
        <time>2011-10-07T09:27:38Z</time>
      </trkpt>
      <trkpt lat="50.11758" lon="3.94907">
        <ele>161.64</ele>
        <time>2011-10-07T09:27:43Z</time>
      </trkpt>
      <trkpt lat="50.11758" lon="3.94911">
        <ele>161.64</ele>
        <time>2011-10-07T09:27:44Z</time>
      </trkpt>
      <trkpt lat="50.11738" lon="3.94937">
        <ele>160.2</ele>
        <time>2011-10-07T09:27:50Z</time>
      </trkpt>
      <trkpt lat="50.117" lon="3.94971">
        <ele>160.68</ele>
        <time>2011-10-07T09:27:55Z</time>
      </trkpt>
      <trkpt lat="50.11646" lon="3.95023">
        <ele>160.68</ele>
        <time>2011-10-07T09:28:02Z</time>
      </trkpt>
      <trkpt lat="50.11641" lon="3.95029">
        <ele>161.16</ele>
        <time>2011-10-07T09:28:03Z</time>
      </trkpt>
      <trkpt lat="50.11636" lon="3.95049">
        <ele>161.16</ele>
        <time>2011-10-07T09:28:07Z</time>
      </trkpt>
      <trkpt lat="50.11639" lon="3.95054">
        <ele>161.16</ele>
        <time>2011-10-07T09:28:08Z</time>
      </trkpt>
      <trkpt lat="50.11654" lon="3.95104">
        <ele>163.08</ele>
        <time>2011-10-07T09:28:14Z</time>
      </trkpt>
      <trkpt lat="50.1166" lon="3.95141">
        <ele>164.52</ele>
        <time>2011-10-07T09:28:17Z</time>
      </trkpt>
      <trkpt lat="50.1167" lon="3.95171">
        <ele>165</ele>
        <time>2011-10-07T09:28:20Z</time>
      </trkpt>
      <trkpt lat="50.1168" lon="3.95189">
        <ele>165.96</ele>
        <time>2011-10-07T09:28:23Z</time>
      </trkpt>
      <trkpt lat="50.11696" lon="3.95239">
        <ele>165.96</ele>
        <time>2011-10-07T09:28:28Z</time>
      </trkpt>
      <trkpt lat="50.11699" lon="3.95309">
        <ele>166.93</ele>
        <time>2011-10-07T09:28:33Z</time>
      </trkpt>
      <trkpt lat="50.11721" lon="3.95377">
        <ele>167.89</ele>
        <time>2011-10-07T09:28:38Z</time>
      </trkpt>
      <trkpt lat="50.11769" lon="3.95492">
        <ele>168.85</ele>
        <time>2011-10-07T09:28:45Z</time>
      </trkpt>
      <trkpt lat="50.11778" lon="3.95522">
        <ele>168.37</ele>
        <time>2011-10-07T09:28:47Z</time>
      </trkpt>
      <trkpt lat="50.11781" lon="3.95573">
        <ele>167.89</ele>
        <time>2011-10-07T09:28:52Z</time>
      </trkpt>
      <trkpt lat="50.11775" lon="3.95586">
        <ele>167.89</ele>
        <time>2011-10-07T09:28:54Z</time>
      </trkpt>
      <trkpt lat="50.1175" lon="3.95629">
        <ele>169.33</ele>
        <time>2011-10-07T09:28:59Z</time>
      </trkpt>
      <trkpt lat="50.11713" lon="3.95668">
        <ele>169.81</ele>
        <time>2011-10-07T09:29:03Z</time>
      </trkpt>
      <trkpt lat="50.11682" lon="3.95701">
        <ele>170.77</ele>
        <time>2011-10-07T09:29:06Z</time>
      </trkpt>
      <trkpt lat="50.11646" lon="3.95782">
        <ele>171.73</ele>
        <time>2011-10-07T09:29:11Z</time>
      </trkpt>
      <trkpt lat="50.11643" lon="3.95803">
        <ele>172.21</ele>
        <time>2011-10-07T09:29:12Z</time>
      </trkpt>
      <trkpt lat="50.11634" lon="3.95938">
        <ele>174.62</ele>
        <time>2011-10-07T09:29:18Z</time>
      </trkpt>
      <trkpt lat="50.11631" lon="3.95986">
        <ele>175.1</ele>
        <time>2011-10-07T09:29:20Z</time>
      </trkpt>
      <trkpt lat="50.11614" lon="3.96124">
        <ele>175.1</ele>
        <time>2011-10-07T09:29:26Z</time>
      </trkpt>
      <trkpt lat="50.11607" lon="3.96173">
        <ele>175.58</ele>
        <time>2011-10-07T09:29:29Z</time>
      </trkpt>
      <trkpt lat="50.11604" lon="3.96196">
        <ele>176.06</ele>
        <time>2011-10-07T09:29:31Z</time>
      </trkpt>
      <trkpt lat="50.11615" lon="3.9623">
        <ele>176.54</ele>
        <time>2011-10-07T09:29:36Z</time>
      </trkpt>
      <trkpt lat="50.11653" lon="3.96265">
        <ele>177.02</ele>
        <time>2011-10-07T09:29:42Z</time>
      </trkpt>
      <trkpt lat="50.11699" lon="3.96286">
        <ele>176.54</ele>
        <time>2011-10-07T09:29:47Z</time>
      </trkpt>
      <trkpt lat="50.11732" lon="3.96299">
        <ele>175.58</ele>
        <time>2011-10-07T09:29:51Z</time>
      </trkpt>
      <trkpt lat="50.11747" lon="3.96327">
        <ele>175.58</ele>
        <time>2011-10-07T09:32:06Z</time>
      </trkpt>
      <trkpt lat="50.11741" lon="3.9637">
        <ele>176.06</ele>
        <time>2011-10-07T09:32:11Z</time>
      </trkpt>
      <trkpt lat="50.11738" lon="3.9644">
        <ele>176.06</ele>
        <time>2011-10-07T09:32:16Z</time>
      </trkpt>
      <trkpt lat="50.11746" lon="3.96558">
        <ele>175.58</ele>
        <time>2011-10-07T09:32:23Z</time>
      </trkpt>
      <trkpt lat="50.11758" lon="3.96721">
        <ele>172.69</ele>
        <time>2011-10-07T09:32:33Z</time>
      </trkpt>
      <trkpt lat="50.11744" lon="3.96784">
        <ele>170.29</ele>
        <time>2011-10-07T09:32:38Z</time>
      </trkpt>
      <trkpt lat="50.11737" lon="3.96795">
        <ele>170.77</ele>
        <time>2011-10-07T09:32:39Z</time>
      </trkpt>
      <trkpt lat="50.11725" lon="3.96819">
        <ele>169.33</ele>
        <time>2011-10-07T09:32:41Z</time>
      </trkpt>
      <trkpt lat="50.11718" lon="3.96848">
        <ele>168.85</ele>
        <time>2011-10-07T09:32:43Z</time>
      </trkpt>
      <trkpt lat="50.11719" lon="3.96897">
        <ele>167.89</ele>
        <time>2011-10-07T09:32:46Z</time>
      </trkpt>
      <trkpt lat="50.11738" lon="3.97029">
        <ele>166.93</ele>
        <time>2011-10-07T09:32:53Z</time>
      </trkpt>
      <trkpt lat="50.11762" lon="3.9712">
        <ele>165.96</ele>
        <time>2011-10-07T09:32:58Z</time>
      </trkpt>
      <trkpt lat="50.11784" lon="3.97218">
        <ele>163.56</ele>
        <time>2011-10-07T09:33:03Z</time>
      </trkpt>
      <trkpt lat="50.11803" lon="3.97365">
        <ele>160.68</ele>
        <time>2011-10-07T09:33:10Z</time>
      </trkpt>
      <trkpt lat="50.1181" lon="3.97428">
        <ele>159.24</ele>
        <time>2011-10-07T09:33:13Z</time>
      </trkpt>
      <trkpt lat="50.11807" lon="3.97491">
        <ele>158.27</ele>
        <time>2011-10-07T09:33:16Z</time>
      </trkpt>
      <trkpt lat="50.11803" lon="3.97513">
        <ele>158.27</ele>
        <time>2011-10-07T09:33:17Z</time>
      </trkpt>
      <trkpt lat="50.11793" lon="3.97558">
        <ele>157.31</ele>
        <time>2011-10-07T09:33:19Z</time>
      </trkpt>
      <trkpt lat="50.11783" lon="3.9767">
        <ele>161.16</ele>
        <time>2011-10-07T09:33:24Z</time>
      </trkpt>
      <trkpt lat="50.11769" lon="3.97776">
        <ele>163.56</ele>
        <time>2011-10-07T09:33:29Z</time>
      </trkpt>
      <trkpt lat="50.11752" lon="3.97867">
        <ele>165.48</ele>
        <time>2011-10-07T09:33:34Z</time>
      </trkpt>
      <trkpt lat="50.11728" lon="3.98001">
        <ele>163.08</ele>
        <time>2011-10-07T09:33:42Z</time>
      </trkpt>
      <trkpt lat="50.11713" lon="3.98124">
        <ele>161.64</ele>
        <time>2011-10-07T09:33:49Z</time>
      </trkpt>
      <trkpt lat="50.1171" lon="3.98222">
        <ele>158.27</ele>
        <time>2011-10-07T09:33:54Z</time>
      </trkpt>
      <trkpt lat="50.11709" lon="3.98319">
        <ele>155.39</ele>
        <time>2011-10-07T09:33:59Z</time>
      </trkpt>
      <trkpt lat="50.11704" lon="3.98403">
        <ele>156.83</ele>
        <time>2011-10-07T09:34:04Z</time>
      </trkpt>
      <trkpt lat="50.11706" lon="3.9846">
        <ele>158.27</ele>
        <time>2011-10-07T09:34:07Z</time>
      </trkpt>
      <trkpt lat="50.1171" lon="3.98521">
        <ele>160.2</ele>
        <time>2011-10-07T09:34:10Z</time>
      </trkpt>
      <trkpt lat="50.11705" lon="3.98561">
        <ele>162.12</ele>
        <time>2011-10-07T09:34:12Z</time>
      </trkpt>
      <trkpt lat="50.1168" lon="3.98696">
        <ele>165</ele>
        <time>2011-10-07T09:34:19Z</time>
      </trkpt>
      <trkpt lat="50.11657" lon="3.98776">
        <ele>165.48</ele>
        <time>2011-10-07T09:34:24Z</time>
      </trkpt>
      <trkpt lat="50.11649" lon="3.98817">
        <ele>164.04</ele>
        <time>2011-10-07T09:34:27Z</time>
      </trkpt>
      <trkpt lat="50.11646" lon="3.98852">
        <ele>164.04</ele>
        <time>2011-10-07T09:34:30Z</time>
      </trkpt>
      <trkpt lat="50.11663" lon="3.98939">
        <ele>162.12</ele>
        <time>2011-10-07T09:34:35Z</time>
      </trkpt>
      <trkpt lat="50.11666" lon="3.98961">
        <ele>162.12</ele>
        <time>2011-10-07T09:34:36Z</time>
      </trkpt>
      <trkpt lat="50.1167" lon="3.99005">
        <ele>160.68</ele>
        <time>2011-10-07T09:34:38Z</time>
      </trkpt>
      <trkpt lat="50.11675" lon="3.99069">
        <ele>157.31</ele>
        <time>2011-10-07T09:34:41Z</time>
      </trkpt>
      <trkpt lat="50.11677" lon="3.99088">
        <ele>157.31</ele>
        <time>2011-10-07T09:34:42Z</time>
      </trkpt>
      <trkpt lat="50.11678" lon="3.99124">
        <ele>155.87</ele>
        <time>2011-10-07T09:34:44Z</time>
      </trkpt>
      <trkpt lat="50.11673" lon="3.99191">
        <ele>153.47</ele>
        <time>2011-10-07T09:34:48Z</time>
      </trkpt>
      <trkpt lat="50.1167" lon="3.99207">
        <ele>152.99</ele>
        <time>2011-10-07T09:34:49Z</time>
      </trkpt>
      <trkpt lat="50.11645" lon="3.99263">
        <ele>153.47</ele>
        <time>2011-10-07T09:34:53Z</time>
      </trkpt>
      <trkpt lat="50.11635" lon="3.99277">
        <ele>153.47</ele>
        <time>2011-10-07T09:34:54Z</time>
      </trkpt>
      <trkpt lat="50.1159" lon="3.99329">
        <ele>156.35</ele>
        <time>2011-10-07T09:34:58Z</time>
      </trkpt>
      <trkpt lat="50.1156" lon="3.99394">
        <ele>157.79</ele>
        <time>2011-10-07T09:35:02Z</time>
      </trkpt>
      <trkpt lat="50.11549" lon="3.99455">
        <ele>158.27</ele>
        <time>2011-10-07T09:35:05Z</time>
      </trkpt>
      <trkpt lat="50.1154" lon="3.99586">
        <ele>156.35</ele>
        <time>2011-10-07T09:35:11Z</time>
      </trkpt>
      <trkpt lat="50.11531" lon="3.99666">
        <ele>154.43</ele>
        <time>2011-10-07T09:35:16Z</time>
      </trkpt>
      <trkpt lat="50.11535" lon="3.99743">
        <ele>154.43</ele>
        <time>2011-10-07T09:35:23Z</time>
      </trkpt>
      <trkpt lat="50.11539" lon="3.99819">
        <ele>154.43</ele>
        <time>2011-10-07T09:35:28Z</time>
      </trkpt>
      <trkpt lat="50.11542" lon="3.99926">
        <ele>155.87</ele>
        <time>2011-10-07T09:35:34Z</time>
      </trkpt>
      <trkpt lat="50.11542" lon="3.99941">
        <ele>155.87</ele>
        <time>2011-10-07T09:35:35Z</time>
      </trkpt>
      <trkpt lat="50.11538" lon="3.99976">
        <ele>157.31</ele>
        <time>2011-10-07T09:35:39Z</time>
      </trkpt>
      <trkpt lat="50.11538" lon="3.99986">
        <ele>157.31</ele>
        <time>2011-10-07T09:35:43Z</time>
      </trkpt>
      <trkpt lat="50.1154" lon="4.00051">
        <ele>155.39</ele>
        <time>2011-10-07T09:35:50Z</time>
      </trkpt>
      <trkpt lat="50.1154" lon="4.00064">
        <ele>154.43</ele>
        <time>2011-10-07T09:35:51Z</time>
      </trkpt>
      <trkpt lat="50.11556" lon="4.0011">
        <ele>153.47</ele>
        <time>2011-10-07T09:35:55Z</time>
      </trkpt>
      <trkpt lat="50.11605" lon="4.00174">
        <ele>152.99</ele>
        <time>2011-10-07T09:36:01Z</time>
      </trkpt>
      <trkpt lat="50.11631" lon="4.00203">
        <ele>152.51</ele>
        <time>2011-10-07T09:36:06Z</time>
      </trkpt>
      <trkpt lat="50.11639" lon="4.00211">
        <ele>152.51</ele>
        <time>2011-10-07T09:36:09Z</time>
      </trkpt>
      <trkpt lat="50.11671" lon="4.00224">
        <ele>151.06</ele>
        <time>2011-10-07T09:36:15Z</time>
      </trkpt>
      <trkpt lat="50.11737" lon="4.00231">
        <ele>151.06</ele>
        <time>2011-10-07T09:36:23Z</time>
      </trkpt>
      <trkpt lat="50.11777" lon="4.00225">
        <ele>150.58</ele>
        <time>2011-10-07T09:36:27Z</time>
      </trkpt>
      <trkpt lat="50.1183" lon="4.00188">
        <ele>150.58</ele>
        <time>2011-10-07T09:36:32Z</time>
      </trkpt>
      <trkpt lat="50.11911" lon="4.00104">
        <ele>150.58</ele>
        <time>2011-10-07T09:36:40Z</time>
      </trkpt>
      <trkpt lat="50.11961" lon="4.00073">
        <ele>150.1</ele>
        <time>2011-10-07T09:36:45Z</time>
      </trkpt>
      <trkpt lat="50.11994" lon="4.00054">
        <ele>149.62</ele>
        <time>2011-10-07T09:36:49Z</time>
      </trkpt>
      <trkpt lat="50.12016" lon="4.00063">
        <ele>150.58</ele>
        <time>2011-10-07T09:36:54Z</time>
      </trkpt>
      <trkpt lat="50.12024" lon="4.00096">
        <ele>149.14</ele>
        <time>2011-10-07T09:36:59Z</time>
      </trkpt>
      <trkpt lat="50.12028" lon="4.00133">
        <ele>149.14</ele>
        <time>2011-10-07T09:37:05Z</time>
      </trkpt>
      <trkpt lat="50.12036" lon="4.00186">
        <ele>149.62</ele>
        <time>2011-10-07T09:37:10Z</time>
      </trkpt>
      <trkpt lat="50.12044" lon="4.00263">
        <ele>151.06</ele>
        <time>2011-10-07T09:37:15Z</time>
      </trkpt>
      <trkpt lat="50.1205" lon="4.00326">
        <ele>153.47</ele>
        <time>2011-10-07T09:37:19Z</time>
      </trkpt>
      <trkpt lat="50.12067" lon="4.00438">
        <ele>154.43</ele>
        <time>2011-10-07T09:37:26Z</time>
      </trkpt>
      <trkpt lat="50.12075" lon="4.00549">
        <ele>152.03</ele>
        <time>2011-10-07T09:37:32Z</time>
      </trkpt>
      <trkpt lat="50.12078" lon="4.00605">
        <ele>152.03</ele>
        <time>2011-10-07T09:37:35Z</time>
      </trkpt>
      <trkpt lat="50.12101" lon="4.00714">
        <ele>151.06</ele>
        <time>2011-10-07T09:37:41Z</time>
      </trkpt>
      <trkpt lat="50.12108" lon="4.00749">
        <ele>151.06</ele>
        <time>2011-10-07T09:37:43Z</time>
      </trkpt>
      <trkpt lat="50.12114" lon="4.00838">
        <ele>150.58</ele>
        <time>2011-10-07T09:37:48Z</time>
      </trkpt>
      <trkpt lat="50.12106" lon="4.00913">
        <ele>151.54</ele>
        <time>2011-10-07T09:37:52Z</time>
      </trkpt>
      <trkpt lat="50.12084" lon="4.01054">
        <ele>152.51</ele>
        <time>2011-10-07T09:37:58Z</time>
      </trkpt>
      <trkpt lat="50.12082" lon="4.01078">
        <ele>152.03</ele>
        <time>2011-10-07T09:37:59Z</time>
      </trkpt>
      <trkpt lat="50.12091" lon="4.01162">
        <ele>153.47</ele>
        <time>2011-10-07T09:38:03Z</time>
      </trkpt>
      <trkpt lat="50.12109" lon="4.01198">
        <ele>154.43</ele>
        <time>2011-10-07T09:38:05Z</time>
      </trkpt>
      <trkpt lat="50.12148" lon="4.01237">
        <ele>156.35</ele>
        <time>2011-10-07T09:38:08Z</time>
      </trkpt>
      <trkpt lat="50.12247" lon="4.013">
        <ele>159.72</ele>
        <time>2011-10-07T09:38:14Z</time>
      </trkpt>
      <trkpt lat="50.12327" lon="4.01355">
        <ele>160.68</ele>
        <time>2011-10-07T09:38:19Z</time>
      </trkpt>
      <trkpt lat="50.12339" lon="4.01366">
        <ele>160.68</ele>
        <time>2011-10-07T09:38:20Z</time>
      </trkpt>
      <trkpt lat="50.1238" lon="4.01426">
        <ele>162.12</ele>
        <time>2011-10-07T09:38:24Z</time>
      </trkpt>
      <trkpt lat="50.12396" lon="4.01488">
        <ele>162.6</ele>
        <time>2011-10-07T09:38:27Z</time>
      </trkpt>
      <trkpt lat="50.12398" lon="4.01511">
        <ele>163.08</ele>
        <time>2011-10-07T09:38:28Z</time>
      </trkpt>
      <trkpt lat="50.12405" lon="4.01695">
        <ele>160.2</ele>
        <time>2011-10-07T09:38:35Z</time>
      </trkpt>
      <trkpt lat="50.12413" lon="4.0185">
        <ele>158.75</ele>
        <time>2011-10-07T09:38:41Z</time>
      </trkpt>
      <trkpt lat="50.12411" lon="4.01961">
        <ele>159.24</ele>
        <time>2011-10-07T09:38:46Z</time>
      </trkpt>
      <trkpt lat="50.12409" lon="4.01981">
        <ele>160.2</ele>
        <time>2011-10-07T09:38:47Z</time>
      </trkpt>
      <trkpt lat="50.12389" lon="4.02053">
        <ele>160.68</ele>
        <time>2011-10-07T09:38:51Z</time>
      </trkpt>
      <trkpt lat="50.12379" lon="4.02069">
        <ele>159.72</ele>
        <time>2011-10-07T09:38:52Z</time>
      </trkpt>
      <trkpt lat="50.12314" lon="4.0218">
        <ele>159.24</ele>
        <time>2011-10-07T09:38:58Z</time>
      </trkpt>
      <trkpt lat="50.1227" lon="4.0227">
        <ele>157.31</ele>
        <time>2011-10-07T09:39:03Z</time>
      </trkpt>
      <trkpt lat="50.12256" lon="4.02304">
        <ele>157.79</ele>
        <time>2011-10-07T09:39:05Z</time>
      </trkpt>
      <trkpt lat="50.12244" lon="4.02377">
        <ele>157.31</ele>
        <time>2011-10-07T09:39:09Z</time>
      </trkpt>
      <trkpt lat="50.12246" lon="4.02397">
        <ele>156.83</ele>
        <time>2011-10-07T09:39:10Z</time>
      </trkpt>
      <trkpt lat="50.12254" lon="4.02437">
        <ele>157.79</ele>
        <time>2011-10-07T09:39:12Z</time>
      </trkpt>
      <trkpt lat="50.12255" lon="4.02545">
        <ele>159.24</ele>
        <time>2011-10-07T09:39:17Z</time>
      </trkpt>
      <trkpt lat="50.12233" lon="4.02603">
        <ele>159.24</ele>
        <time>2011-10-07T09:39:20Z</time>
      </trkpt>
      <trkpt lat="50.12206" lon="4.02663">
        <ele>160.68</ele>
        <time>2011-10-07T09:39:23Z</time>
      </trkpt>
      <trkpt lat="50.12181" lon="4.02754">
        <ele>163.08</ele>
        <time>2011-10-07T09:39:27Z</time>
      </trkpt>
      <trkpt lat="50.12151" lon="4.02876">
        <ele>163.56</ele>
        <time>2011-10-07T09:39:33Z</time>
      </trkpt>
      <trkpt lat="50.12147" lon="4.02893">
        <ele>163.56</ele>
        <time>2011-10-07T09:39:34Z</time>
      </trkpt>
      <trkpt lat="50.12125" lon="4.02941">
        <ele>163.08</ele>
        <time>2011-10-07T09:39:37Z</time>
      </trkpt>
      <trkpt lat="50.12104" lon="4.02968">
        <ele>161.64</ele>
        <time>2011-10-07T09:39:39Z</time>
      </trkpt>
      <trkpt lat="50.12079" lon="4.02987">
        <ele>161.16</ele>
        <time>2011-10-07T09:39:41Z</time>
      </trkpt>
      <trkpt lat="50.12023" lon="4.03019">
        <ele>159.24</ele>
        <time>2011-10-07T09:39:45Z</time>
      </trkpt>
      <trkpt lat="50.11926" lon="4.0309">
        <ele>156.35</ele>
        <time>2011-10-07T09:39:52Z</time>
      </trkpt>
      <trkpt lat="50.11913" lon="4.03102">
        <ele>156.35</ele>
        <time>2011-10-07T09:39:53Z</time>
      </trkpt>
      <trkpt lat="50.11859" lon="4.03173">
        <ele>155.87</ele>
        <time>2011-10-07T09:39:58Z</time>
      </trkpt>
      <trkpt lat="50.11838" lon="4.032">
        <ele>155.87</ele>
        <time>2011-10-07T09:40:00Z</time>
      </trkpt>
      <trkpt lat="50.11802" lon="4.03288">
        <ele>156.83</ele>
        <time>2011-10-07T09:40:05Z</time>
      </trkpt>
      <trkpt lat="50.118" lon="4.03354">
        <ele>158.75</ele>
        <time>2011-10-07T09:40:08Z</time>
      </trkpt>
      <trkpt lat="50.11803" lon="4.03377">
        <ele>158.75</ele>
        <time>2011-10-07T09:40:09Z</time>
      </trkpt>
      <trkpt lat="50.11807" lon="4.034">
        <ele>159.24</ele>
        <time>2011-10-07T09:40:10Z</time>
      </trkpt>
      <trkpt lat="50.11822" lon="4.03466">
        <ele>159.72</ele>
        <time>2011-10-07T09:40:13Z</time>
      </trkpt>
      <trkpt lat="50.11824" lon="4.03549">
        <ele>160.68</ele>
        <time>2011-10-07T09:40:17Z</time>
      </trkpt>
      <trkpt lat="50.11815" lon="4.03589">
        <ele>160.68</ele>
        <time>2011-10-07T09:40:19Z</time>
      </trkpt>
      <trkpt lat="50.1179" lon="4.03658">
        <ele>161.16</ele>
        <time>2011-10-07T09:40:23Z</time>
      </trkpt>
      <trkpt lat="50.1177" lon="4.0375">
        <ele>159.24</ele>
        <time>2011-10-07T09:40:28Z</time>
      </trkpt>
      <trkpt lat="50.11767" lon="4.0377">
        <ele>159.24</ele>
        <time>2011-10-07T09:40:29Z</time>
      </trkpt>
      <trkpt lat="50.1176" lon="4.03809">
        <ele>157.31</ele>
        <time>2011-10-07T09:40:31Z</time>
      </trkpt>
      <trkpt lat="50.1176" lon="4.03881">
        <ele>156.83</ele>
        <time>2011-10-07T09:40:35Z</time>
      </trkpt>
      <trkpt lat="50.1177" lon="4.03952">
        <ele>158.75</ele>
        <time>2011-10-07T09:40:40Z</time>
      </trkpt>
      <trkpt lat="50.11758" lon="4.03995">
        <ele>161.64</ele>
        <time>2011-10-07T09:40:46Z</time>
      </trkpt>
      <trkpt lat="50.11743" lon="4.04021">
        <ele>162.6</ele>
        <time>2011-10-07T09:40:50Z</time>
      </trkpt>
      <trkpt lat="50.11729" lon="4.04041">
        <ele>162.12</ele>
        <time>2011-10-07T09:40:53Z</time>
      </trkpt>
      <trkpt lat="50.11725" lon="4.04044">
        <ele>161.64</ele>
        <time>2011-10-07T09:40:54Z</time>
      </trkpt>
      <trkpt lat="50.1172" lon="4.04047">
        <ele>161.64</ele>
        <time>2011-10-07T09:40:55Z</time>
      </trkpt>
      <trkpt lat="50.11715" lon="4.04046">
        <ele>161.16</ele>
        <time>2011-10-07T09:40:56Z</time>
      </trkpt>
      <trkpt lat="50.1171" lon="4.04044">
        <ele>161.64</ele>
        <time>2011-10-07T09:40:57Z</time>
      </trkpt>
      <trkpt lat="50.11666" lon="4.04017">
        <ele>161.16</ele>
        <time>2011-10-07T09:41:00Z</time>
      </trkpt>
      <trkpt lat="50.11528" lon="4.03946">
        <ele>161.64</ele>
        <time>2011-10-07T09:41:07Z</time>
      </trkpt>
      <trkpt lat="50.11455" lon="4.03904">
        <ele>162.12</ele>
        <time>2011-10-07T09:41:13Z</time>
      </trkpt>
      <trkpt lat="50.11409" lon="4.0387">
        <ele>162.6</ele>
        <time>2011-10-07T09:41:18Z</time>
      </trkpt>
      <trkpt lat="50.114" lon="4.03867">
        <ele>163.08</ele>
        <time>2011-10-07T09:41:21Z</time>
      </trkpt>
      <trkpt lat="50.11395" lon="4.03858">
        <ele>163.08</ele>
        <time>2011-10-07T09:41:24Z</time>
      </trkpt>
      <trkpt lat="50.11386" lon="4.03816">
        <ele>165.48</ele>
        <time>2011-10-07T09:41:28Z</time>
      </trkpt>
      <trkpt lat="50.11372" lon="4.03753">
        <ele>169.33</ele>
        <time>2011-10-07T09:41:32Z</time>
      </trkpt>
      <trkpt lat="50.11358" lon="4.03697">
        <ele>172.69</ele>
        <time>2011-10-07T09:41:35Z</time>
      </trkpt>
      <trkpt lat="50.11347" lon="4.03655">
        <ele>176.06</ele>
        <time>2011-10-07T09:41:37Z</time>
      </trkpt>
      <trkpt lat="50.11335" lon="4.03611">
        <ele>179.9</ele>
        <time>2011-10-07T09:41:39Z</time>
      </trkpt>
      <trkpt lat="50.11311" lon="4.03519">
        <ele>183.27</ele>
        <time>2011-10-07T09:41:43Z</time>
      </trkpt>
      <trkpt lat="50.11292" lon="4.03443">
        <ele>186.63</ele>
        <time>2011-10-07T09:41:46Z</time>
      </trkpt>
      <trkpt lat="50.11275" lon="4.03334">
        <ele>188.08</ele>
        <time>2011-10-07T09:41:50Z</time>
      </trkpt>
      <trkpt lat="50.11258" lon="4.03237">
        <ele>190.96</ele>
        <time>2011-10-07T09:41:54Z</time>
      </trkpt>
      <trkpt lat="50.11227" lon="4.03169">
        <ele>192.88</ele>
        <time>2011-10-07T09:41:58Z</time>
      </trkpt>
      <trkpt lat="50.11204" lon="4.03148">
        <ele>193.36</ele>
        <time>2011-10-07T09:42:00Z</time>
      </trkpt>
      <trkpt lat="50.11156" lon="4.03105">
        <ele>194.32</ele>
        <time>2011-10-07T09:42:04Z</time>
      </trkpt>
      <trkpt lat="50.11123" lon="4.03035">
        <ele>196.73</ele>
        <time>2011-10-07T09:42:08Z</time>
      </trkpt>
      <trkpt lat="50.1108" lon="4.02891">
        <ele>197.21</ele>
        <time>2011-10-07T09:42:14Z</time>
      </trkpt>
      <trkpt lat="50.1104" lon="4.02808">
        <ele>198.17</ele>
        <time>2011-10-07T09:42:18Z</time>
      </trkpt>
      <trkpt lat="50.1097" lon="4.02677">
        <ele>200.57</ele>
        <time>2011-10-07T09:42:24Z</time>
      </trkpt>
      <trkpt lat="50.1095" lon="4.02627">
        <ele>201.53</ele>
        <time>2011-10-07T09:42:26Z</time>
      </trkpt>
      <trkpt lat="50.10883" lon="4.02487">
        <ele>201.05</ele>
        <time>2011-10-07T09:42:32Z</time>
      </trkpt>
      <trkpt lat="50.10816" lon="4.0239">
        <ele>198.65</ele>
        <time>2011-10-07T09:42:37Z</time>
      </trkpt>
      <trkpt lat="50.10751" lon="4.02291">
        <ele>194.8</ele>
        <time>2011-10-07T09:42:42Z</time>
      </trkpt>
      <trkpt lat="50.10716" lon="4.02243">
        <ele>193.84</ele>
        <time>2011-10-07T09:42:45Z</time>
      </trkpt>
      <trkpt lat="50.10614" lon="4.02175">
        <ele>192.4</ele>
        <time>2011-10-07T09:42:52Z</time>
      </trkpt>
      <trkpt lat="50.10583" lon="4.0216">
        <ele>191.92</ele>
        <time>2011-10-07T09:42:54Z</time>
      </trkpt>
      <trkpt lat="50.10521" lon="4.02153">
        <ele>190.96</ele>
        <time>2011-10-07T09:42:58Z</time>
      </trkpt>
      <trkpt lat="50.10475" lon="4.02161">
        <ele>188.56</ele>
        <time>2011-10-07T09:43:01Z</time>
      </trkpt>
      <trkpt lat="50.10421" lon="4.02144">
        <ele>186.15</ele>
        <time>2011-10-07T09:43:05Z</time>
      </trkpt>
      <trkpt lat="50.10408" lon="4.02132">
        <ele>186.15</ele>
        <time>2011-10-07T09:43:06Z</time>
      </trkpt>
      <trkpt lat="50.10357" lon="4.02068">
        <ele>184.71</ele>
        <time>2011-10-07T09:43:10Z</time>
      </trkpt>
      <trkpt lat="50.10312" lon="4.01988">
        <ele>183.27</ele>
        <time>2011-10-07T09:43:14Z</time>
      </trkpt>
      <trkpt lat="50.10299" lon="4.01966">
        <ele>183.27</ele>
        <time>2011-10-07T09:43:15Z</time>
      </trkpt>
      <trkpt lat="50.10225" lon="4.01858">
        <ele>183.75</ele>
        <time>2011-10-07T09:43:20Z</time>
      </trkpt>
      <trkpt lat="50.10166" lon="4.01774">
        <ele>180.87</ele>
        <time>2011-10-07T09:43:24Z</time>
      </trkpt>
      <trkpt lat="50.10093" lon="4.01671">
        <ele>177.5</ele>
        <time>2011-10-07T09:43:29Z</time>
      </trkpt>
      <trkpt lat="50.10042" lon="4.01598">
        <ele>174.14</ele>
        <time>2011-10-07T09:43:33Z</time>
      </trkpt>
      <trkpt lat="50.10022" lon="4.0157">
        <ele>172.21</ele>
        <time>2011-10-07T09:43:35Z</time>
      </trkpt>
      <trkpt lat="50.0998" lon="4.0154">
        <ele>168.37</ele>
        <time>2011-10-07T09:43:39Z</time>
      </trkpt>
      <trkpt lat="50.09947" lon="4.01547">
        <ele>165.96</ele>
        <time>2011-10-07T09:43:42Z</time>
      </trkpt>
      <trkpt lat="50.09922" lon="4.01564">
        <ele>164.04</ele>
        <time>2011-10-07T09:43:45Z</time>
      </trkpt>
      <trkpt lat="50.09917" lon="4.01569">
        <ele>164.04</ele>
        <time>2011-10-07T09:43:46Z</time>
      </trkpt>
      <trkpt lat="50.09899" lon="4.01567">
        <ele>163.56</ele>
        <time>2011-10-07T09:43:51Z</time>
      </trkpt>
      <trkpt lat="50.09898" lon="4.01565">
        <ele>163.56</ele>
        <time>2011-10-07T09:43:52Z</time>
      </trkpt>
      <trkpt lat="50.09889" lon="4.01539">
        <ele>164.04</ele>
        <time>2011-10-07T09:43:59Z</time>
      </trkpt>
      <trkpt lat="50.09868" lon="4.01487">
        <ele>165</ele>
        <time>2011-10-07T09:44:04Z</time>
      </trkpt>
      <trkpt lat="50.09821" lon="4.0142">
        <ele>168.85</ele>
        <time>2011-10-07T09:44:10Z</time>
      </trkpt>
      <trkpt lat="50.09804" lon="4.0139">
        <ele>170.77</ele>
        <time>2011-10-07T09:44:12Z</time>
      </trkpt>
      <trkpt lat="50.09779" lon="4.0134">
        <ele>173.66</ele>
        <time>2011-10-07T09:44:15Z</time>
      </trkpt>
      <trkpt lat="50.09771" lon="4.01324">
        <ele>174.62</ele>
        <time>2011-10-07T09:44:16Z</time>
      </trkpt>
      <trkpt lat="50.0973" lon="4.01272">
        <ele>178.46</ele>
        <time>2011-10-07T09:44:20Z</time>
      </trkpt>
      <trkpt lat="50.09698" lon="4.01237">
        <ele>179.9</ele>
        <time>2011-10-07T09:44:23Z</time>
      </trkpt>
      <trkpt lat="50.09667" lon="4.01198">
        <ele>181.35</ele>
        <time>2011-10-07T09:44:27Z</time>
      </trkpt>
      <trkpt lat="50.09662" lon="4.01192">
        <ele>181.83</ele>
        <time>2011-10-07T09:44:28Z</time>
      </trkpt>
      <trkpt lat="50.09656" lon="4.01168">
        <ele>183.27</ele>
        <time>2011-10-07T09:44:33Z</time>
      </trkpt>
      <trkpt lat="50.09666" lon="4.0115">
        <ele>184.23</ele>
        <time>2011-10-07T09:44:36Z</time>
      </trkpt>
      <trkpt lat="50.09704" lon="4.01101">
        <ele>185.67</ele>
        <time>2011-10-07T09:44:41Z</time>
      </trkpt>
      <trkpt lat="50.09731" lon="4.0105">
        <ele>185.67</ele>
        <time>2011-10-07T09:44:45Z</time>
      </trkpt>
      <trkpt lat="50.09742" lon="4.01031">
        <ele>185.67</ele>
        <time>2011-10-07T09:44:48Z</time>
      </trkpt>
      <trkpt lat="50.09744" lon="4.01027">
        <ele>185.19</ele>
        <time>2011-10-07T09:44:49Z</time>
      </trkpt>
      <trkpt lat="50.09734" lon="4.01016">
        <ele>186.15</ele>
        <time>2011-10-07T09:44:54Z</time>
      </trkpt>
      <trkpt lat="50.09699" lon="4.0101">
        <ele>188.08</ele>
        <time>2011-10-07T09:45:00Z</time>
      </trkpt>
      <trkpt lat="50.09676" lon="4.01018">
        <ele>189.52</ele>
        <time>2011-10-07T09:45:04Z</time>
      </trkpt>
      <trkpt lat="50.09657" lon="4.01036">
        <ele>190</ele>
        <time>2011-10-07T09:45:07Z</time>
      </trkpt>
      <trkpt lat="50.09628" lon="4.0105">
        <ele>191.44</ele>
        <time>2011-10-07T09:45:11Z</time>
      </trkpt>
      <trkpt lat="50.09571" lon="4.01047">
        <ele>190</ele>
        <time>2011-10-07T09:45:19Z</time>
      </trkpt>
      <trkpt lat="50.09566" lon="4.01046">
        <ele>190</ele>
        <time>2011-10-07T09:45:20Z</time>
      </trkpt>
      <trkpt lat="50.09546" lon="4.01034">
        <ele>190.96</ele>
        <time>2011-10-07T09:45:24Z</time>
      </trkpt>
      <trkpt lat="50.09509" lon="4.00997">
        <ele>191.92</ele>
        <time>2011-10-07T09:45:31Z</time>
      </trkpt>
      <trkpt lat="50.09479" lon="4.00968">
        <ele>193.36</ele>
        <time>2011-10-07T09:45:37Z</time>
      </trkpt>
      <trkpt lat="50.09428" lon="4.00922">
        <ele>193.84</ele>
        <time>2011-10-07T09:45:44Z</time>
      </trkpt>
      <trkpt lat="50.09378" lon="4.00887">
        <ele>191.44</ele>
        <time>2011-10-07T09:45:51Z</time>
      </trkpt>
      <trkpt lat="50.09352" lon="4.0088">
        <ele>190.48</ele>
        <time>2011-10-07T09:45:57Z</time>
      </trkpt>
      <trkpt lat="50.09349" lon="4.00881">
        <ele>190.48</ele>
        <time>2011-10-07T09:45:58Z</time>
      </trkpt>
      <trkpt lat="50.09345" lon="4.00902">
        <ele>188.56</ele>
        <time>2011-10-07T09:46:02Z</time>
      </trkpt>
      <trkpt lat="50.09332" lon="4.00932">
        <ele>187.59</ele>
        <time>2011-10-07T09:46:06Z</time>
      </trkpt>
      <trkpt lat="50.09299" lon="4.00977">
        <ele>182.79</ele>
        <time>2011-10-07T09:46:11Z</time>
      </trkpt>
      <trkpt lat="50.09292" lon="4.00987">
        <ele>182.79</ele>
        <time>2011-10-07T09:46:12Z</time>
      </trkpt>
      <trkpt lat="50.09253" lon="4.01036">
        <ele>178.46</ele>
        <time>2011-10-07T09:46:17Z</time>
      </trkpt>
      <trkpt lat="50.09219" lon="4.01077">
        <ele>175.1</ele>
        <time>2011-10-07T09:46:22Z</time>
      </trkpt>
      <trkpt lat="50.09214" lon="4.01082">
        <ele>174.62</ele>
        <time>2011-10-07T09:46:23Z</time>
      </trkpt>
      <trkpt lat="50.09203" lon="4.01087">
        <ele>174.14</ele>
        <time>2011-10-07T09:46:27Z</time>
      </trkpt>
      <trkpt lat="50.09209" lon="4.01101">
        <ele>174.62</ele>
        <time>2011-10-07T09:46:32Z</time>
      </trkpt>
      <trkpt lat="50.09231" lon="4.0114">
        <ele>174.14</ele>
        <time>2011-10-07T09:46:37Z</time>
      </trkpt>
      <trkpt lat="50.09281" lon="4.01215">
        <ele>173.66</ele>
        <time>2011-10-07T09:46:43Z</time>
      </trkpt>
      <trkpt lat="50.09343" lon="4.01341">
        <ele>172.69</ele>
        <time>2011-10-07T09:46:52Z</time>
      </trkpt>
      <trkpt lat="50.09395" lon="4.01412">
        <ele>172.21</ele>
        <time>2011-10-07T09:46:58Z</time>
      </trkpt>
      <trkpt lat="50.09439" lon="4.01482">
        <ele>170.29</ele>
        <time>2011-10-07T09:47:04Z</time>
      </trkpt>
      <trkpt lat="50.09456" lon="4.01512">
        <ele>168.85</ele>
        <time>2011-10-07T09:47:08Z</time>
      </trkpt>
      <trkpt lat="50.09462" lon="4.01516">
        <ele>168.85</ele>
        <time>2011-10-07T09:47:12Z</time>
      </trkpt>
      <trkpt lat="50.09462" lon="4.01516">
        <ele>168.85</ele>
        <time>2011-10-07T09:47:15Z</time>
      </trkpt>
      <trkpt lat="50.09463" lon="4.01541">
        <ele>168.37</ele>
        <time>2011-10-07T09:47:20Z</time>
      </trkpt>
      <trkpt lat="50.09461" lon="4.0155">
        <ele>168.37</ele>
        <time>2011-10-07T09:47:21Z</time>
      </trkpt>
      <trkpt lat="50.09443" lon="4.01639">
        <ele>169.33</ele>
        <time>2011-10-07T09:47:27Z</time>
      </trkpt>
      <trkpt lat="50.0944" lon="4.01655">
        <ele>169.33</ele>
        <time>2011-10-07T09:47:28Z</time>
      </trkpt>
      <trkpt lat="50.09427" lon="4.017">
        <ele>171.25</ele>
        <time>2011-10-07T09:47:31Z</time>
      </trkpt>
      <trkpt lat="50.09407" lon="4.01742">
        <ele>172.21</ele>
        <time>2011-10-07T09:47:34Z</time>
      </trkpt>
      <trkpt lat="50.09341" lon="4.01833">
        <ele>175.58</ele>
        <time>2011-10-07T09:47:41Z</time>
      </trkpt>
      <trkpt lat="50.09283" lon="4.01906">
        <ele>178.94</ele>
        <time>2011-10-07T09:47:47Z</time>
      </trkpt>
      <trkpt lat="50.09262" lon="4.01928">
        <ele>179.42</ele>
        <time>2011-10-07T09:47:49Z</time>
      </trkpt>
      <trkpt lat="50.09218" lon="4.01971">
        <ele>182.31</ele>
        <time>2011-10-07T09:47:53Z</time>
      </trkpt>
      <trkpt lat="50.09121" lon="4.02053">
        <ele>183.75</ele>
        <time>2011-10-07T09:48:01Z</time>
      </trkpt>
      <trkpt lat="50.09073" lon="4.021">
        <ele>181.35</ele>
        <time>2011-10-07T09:48:06Z</time>
      </trkpt>
      <trkpt lat="50.09053" lon="4.0212">
        <ele>181.35</ele>
        <time>2011-10-07T09:48:09Z</time>
      </trkpt>
      <trkpt lat="50.09034" lon="4.02177">
        <ele>181.83</ele>
        <time>2011-10-07T09:48:15Z</time>
      </trkpt>
      <trkpt lat="50.0901" lon="4.02266">
        <ele>184.71</ele>
        <time>2011-10-07T09:48:22Z</time>
      </trkpt>
      <trkpt lat="50.08994" lon="4.02309">
        <ele>186.63</ele>
        <time>2011-10-07T09:48:25Z</time>
      </trkpt>
      <trkpt lat="50.08976" lon="4.0236">
        <ele>189.52</ele>
        <time>2011-10-07T09:48:29Z</time>
      </trkpt>
      <trkpt lat="50.08956" lon="4.02421">
        <ele>192.88</ele>
        <time>2011-10-07T09:48:34Z</time>
      </trkpt>
      <trkpt lat="50.08952" lon="4.02433">
        <ele>192.88</ele>
        <time>2011-10-07T09:48:35Z</time>
      </trkpt>
      <trkpt lat="50.0893" lon="4.02499">
        <ele>196.73</ele>
        <time>2011-10-07T09:48:40Z</time>
      </trkpt>
      <trkpt lat="50.08924" lon="4.02522">
        <ele>197.21</ele>
        <time>2011-10-07T09:48:42Z</time>
      </trkpt>
      <trkpt lat="50.08915" lon="4.02558">
        <ele>199.13</ele>
        <time>2011-10-07T09:48:46Z</time>
      </trkpt>
      <trkpt lat="50.08913" lon="4.02604">
        <ele>200.57</ele>
        <time>2011-10-07T09:48:51Z</time>
      </trkpt>
      <trkpt lat="50.08906" lon="4.02682">
        <ele>202.49</ele>
        <time>2011-10-07T09:48:57Z</time>
      </trkpt>
      <trkpt lat="50.08895" lon="4.02755">
        <ele>205.86</ele>
        <time>2011-10-07T09:49:01Z</time>
      </trkpt>
      <trkpt lat="50.08877" lon="4.02826">
        <ele>207.78</ele>
        <time>2011-10-07T09:49:05Z</time>
      </trkpt>
      <trkpt lat="50.08867" lon="4.02865">
        <ele>208.74</ele>
        <time>2011-10-07T09:49:08Z</time>
      </trkpt>
      <trkpt lat="50.08867" lon="4.02902">
        <ele>208.74</ele>
        <time>2011-10-07T09:49:12Z</time>
      </trkpt>
      <trkpt lat="50.08872" lon="4.02937">
        <ele>208.26</ele>
        <time>2011-10-07T09:49:15Z</time>
      </trkpt>
      <trkpt lat="50.08872" lon="4.02993">
        <ele>206.34</ele>
        <time>2011-10-07T09:49:19Z</time>
      </trkpt>
      <trkpt lat="50.08874" lon="4.03054">
        <ele>204.9</ele>
        <time>2011-10-07T09:49:23Z</time>
      </trkpt>
      <trkpt lat="50.08888" lon="4.0308">
        <ele>206.82</ele>
        <time>2011-10-07T09:49:26Z</time>
      </trkpt>
      <trkpt lat="50.08928" lon="4.03086">
        <ele>205.86</ele>
        <time>2011-10-07T09:49:31Z</time>
      </trkpt>
      <trkpt lat="50.08964" lon="4.03102">
        <ele>205.38</ele>
        <time>2011-10-07T09:49:36Z</time>
      </trkpt>
      <trkpt lat="50.08976" lon="4.03123">
        <ele>206.34</ele>
        <time>2011-10-07T09:49:38Z</time>
      </trkpt>
      <trkpt lat="50.09004" lon="4.0317">
        <ele>205.86</ele>
        <time>2011-10-07T09:49:43Z</time>
      </trkpt>
      <trkpt lat="50.09019" lon="4.03187">
        <ele>205.38</ele>
        <time>2011-10-07T09:49:48Z</time>
      </trkpt>
      <trkpt lat="50.0903" lon="4.0319">
        <ele>204.9</ele>
        <time>2011-10-07T09:49:52Z</time>
      </trkpt>
      <trkpt lat="50.09046" lon="4.03189">
        <ele>204.42</ele>
        <time>2011-10-07T09:49:55Z</time>
      </trkpt>
      <trkpt lat="50.0906" lon="4.03193">
        <ele>203.94</ele>
        <time>2011-10-07T09:49:57Z</time>
      </trkpt>
      <trkpt lat="50.09072" lon="4.03201">
        <ele>202.98</ele>
        <time>2011-10-07T09:49:59Z</time>
      </trkpt>
      <trkpt lat="50.09107" lon="4.03241">
        <ele>200.57</ele>
        <time>2011-10-07T09:50:05Z</time>
      </trkpt>
      <trkpt lat="50.09138" lon="4.03289">
        <ele>197.69</ele>
        <time>2011-10-07T09:50:09Z</time>
      </trkpt>
      <trkpt lat="50.09145" lon="4.03302">
        <ele>196.73</ele>
        <time>2011-10-07T09:50:10Z</time>
      </trkpt>
      <trkpt lat="50.09164" lon="4.03344">
        <ele>194.32</ele>
        <time>2011-10-07T09:50:13Z</time>
      </trkpt>
      <trkpt lat="50.09184" lon="4.03419">
        <ele>193.36</ele>
        <time>2011-10-07T09:50:18Z</time>
      </trkpt>
      <trkpt lat="50.09186" lon="4.03505">
        <ele>196.73</ele>
        <time>2011-10-07T09:50:24Z</time>
      </trkpt>
      <trkpt lat="50.09185" lon="4.0354">
        <ele>197.21</ele>
        <time>2011-10-07T09:50:26Z</time>
      </trkpt>
      <trkpt lat="50.09184" lon="4.03575">
        <ele>198.17</ele>
        <time>2011-10-07T09:50:28Z</time>
      </trkpt>
      <trkpt lat="50.09185" lon="4.03607">
        <ele>199.13</ele>
        <time>2011-10-07T09:50:30Z</time>
      </trkpt>
      <trkpt lat="50.09198" lon="4.03655">
        <ele>200.09</ele>
        <time>2011-10-07T09:50:33Z</time>
      </trkpt>
      <trkpt lat="50.09211" lon="4.03751">
        <ele>201.05</ele>
        <time>2011-10-07T09:50:39Z</time>
      </trkpt>
      <trkpt lat="50.09211" lon="4.03842">
        <ele>202.01</ele>
        <time>2011-10-07T09:50:44Z</time>
      </trkpt>
      <trkpt lat="50.09197" lon="4.03951">
        <ele>203.46</ele>
        <time>2011-10-07T09:50:49Z</time>
      </trkpt>
      <trkpt lat="50.09186" lon="4.04046">
        <ele>206.82</ele>
        <time>2011-10-07T09:50:53Z</time>
      </trkpt>
      <trkpt lat="50.09184" lon="4.04068">
        <ele>206.82</ele>
        <time>2011-10-07T09:50:54Z</time>
      </trkpt>
      <trkpt lat="50.09182" lon="4.04089">
        <ele>207.78</ele>
        <time>2011-10-07T09:50:55Z</time>
      </trkpt>
      <trkpt lat="50.09186" lon="4.04187">
        <ele>210.19</ele>
        <time>2011-10-07T09:51:00Z</time>
      </trkpt>
      <trkpt lat="50.09206" lon="4.04244">
        <ele>210.67</ele>
        <time>2011-10-07T09:51:04Z</time>
      </trkpt>
      <trkpt lat="50.09223" lon="4.04267">
        <ele>211.15</ele>
        <time>2011-10-07T09:51:06Z</time>
      </trkpt>
      <trkpt lat="50.09243" lon="4.04289">
        <ele>211.63</ele>
        <time>2011-10-07T09:51:08Z</time>
      </trkpt>
      <trkpt lat="50.09266" lon="4.04337">
        <ele>214.03</ele>
        <time>2011-10-07T09:51:11Z</time>
      </trkpt>
      <trkpt lat="50.09301" lon="4.04457">
        <ele>217.4</ele>
        <time>2011-10-07T09:51:17Z</time>
      </trkpt>
      <trkpt lat="50.09313" lon="4.04495">
        <ele>218.36</ele>
        <time>2011-10-07T09:51:19Z</time>
      </trkpt>
      <trkpt lat="50.09324" lon="4.04528">
        <ele>218.36</ele>
        <time>2011-10-07T09:51:21Z</time>
      </trkpt>
      <trkpt lat="50.09364" lon="4.04596">
        <ele>218.84</ele>
        <time>2011-10-07T09:51:26Z</time>
      </trkpt>
      <trkpt lat="50.09438" lon="4.04678">
        <ele>219.8</ele>
        <time>2011-10-07T09:51:32Z</time>
      </trkpt>
      <trkpt lat="50.09458" lon="4.04701">
        <ele>220.76</ele>
        <time>2011-10-07T09:51:34Z</time>
      </trkpt>
      <trkpt lat="50.09475" lon="4.04754">
        <ele>221.72</ele>
        <time>2011-10-07T09:51:38Z</time>
      </trkpt>
      <trkpt lat="50.0947" lon="4.04801">
        <ele>222.68</ele>
        <time>2011-10-07T09:51:41Z</time>
      </trkpt>
      <trkpt lat="50.09444" lon="4.0492">
        <ele>224.12</ele>
        <time>2011-10-07T09:51:48Z</time>
      </trkpt>
      <trkpt lat="50.09414" lon="4.05056">
        <ele>222.2</ele>
        <time>2011-10-07T09:51:56Z</time>
      </trkpt>
      <trkpt lat="50.09411" lon="4.05074">
        <ele>222.2</ele>
        <time>2011-10-07T09:51:57Z</time>
      </trkpt>
      <trkpt lat="50.09385" lon="4.05204">
        <ele>221.72</ele>
        <time>2011-10-07T09:52:04Z</time>
      </trkpt>
      <trkpt lat="50.09366" lon="4.05304">
        <ele>219.8</ele>
        <time>2011-10-07T09:52:10Z</time>
      </trkpt>
      <trkpt lat="50.0935" lon="4.05376">
        <ele>217.4</ele>
        <time>2011-10-07T09:52:14Z</time>
      </trkpt>
      <trkpt lat="50.09338" lon="4.05433">
        <ele>215.95</ele>
        <time>2011-10-07T09:52:17Z</time>
      </trkpt>
      <trkpt lat="50.09326" lon="4.05491">
        <ele>212.59</ele>
        <time>2011-10-07T09:52:20Z</time>
      </trkpt>
      <trkpt lat="50.09314" lon="4.05552">
        <ele>209.7</ele>
        <time>2011-10-07T09:52:23Z</time>
      </trkpt>
      <trkpt lat="50.09299" lon="4.05634">
        <ele>207.3</ele>
        <time>2011-10-07T09:52:27Z</time>
      </trkpt>
      <trkpt lat="50.0928" lon="4.05732">
        <ele>203.46</ele>
        <time>2011-10-07T09:52:32Z</time>
      </trkpt>
      <trkpt lat="50.09266" lon="4.05817">
        <ele>202.01</ele>
        <time>2011-10-07T09:52:37Z</time>
      </trkpt>
      <trkpt lat="50.09253" lon="4.05896">
        <ele>198.17</ele>
        <time>2011-10-07T09:52:42Z</time>
      </trkpt>
      <trkpt lat="50.09238" lon="4.05981">
        <ele>194.32</ele>
        <time>2011-10-07T09:52:47Z</time>
      </trkpt>
      <trkpt lat="50.09232" lon="4.06018">
        <ele>193.36</ele>
        <time>2011-10-07T09:52:49Z</time>
      </trkpt>
      <trkpt lat="50.0922" lon="4.06099">
        <ele>197.21</ele>
        <time>2011-10-07T09:52:54Z</time>
      </trkpt>
      <trkpt lat="50.09218" lon="4.06111">
        <ele>197.21</ele>
        <time>2011-10-07T09:52:55Z</time>
      </trkpt>
      <trkpt lat="50.09214" lon="4.06132">
        <ele>197.69</ele>
        <time>2011-10-07T09:52:57Z</time>
      </trkpt>
      <trkpt lat="50.09201" lon="4.06157">
        <ele>197.69</ele>
        <time>2011-10-07T09:53:02Z</time>
      </trkpt>
      <trkpt lat="50.09238" lon="4.06145">
        <ele>200</ele>
      </trkpt>
      <trkpt lat="50.09293" lon="4.06175">
        <ele>198.3710938</ele>
      </trkpt>
      <trkpt lat="50.09372" lon="4.06209">
        <ele>196.390625</ele>
      </trkpt>
      <trkpt lat="50.09434" lon="4.06257">
        <ele>195.7539063</ele>
      </trkpt>
      <trkpt lat="50.09436" lon="4.06257">
        <ele>195.7617188</ele>
      </trkpt>
      <trkpt lat="50.09499" lon="4.06326">
        <ele>194.34375</ele>
      </trkpt>
      <trkpt lat="50.09545" lon="4.06397">
        <ele>194.296875</ele>
      </trkpt>
      <trkpt lat="50.09592" lon="4.06466">
        <ele>193.0117188</ele>
      </trkpt>
      <trkpt lat="50.09638" lon="4.06502">
        <ele>193.5585938</ele>
      </trkpt>
      <trkpt lat="50.09728" lon="4.06583">
        <ele>194.4023438</ele>
      </trkpt>
      <trkpt lat="50.0981" lon="4.0664">
        <ele>194.140625</ele>
      </trkpt>
      <trkpt lat="50.09944" lon="4.06729">
        <ele>189.4960938</ele>
      </trkpt>
      <trkpt lat="50.10014" lon="4.06777">
        <ele>188.171875</ele>
      </trkpt>
      <trkpt lat="50.10112" lon="4.06849">
        <ele>185</ele>
      </trkpt>
      <trkpt lat="50.10181" lon="4.06887">
        <ele>186.7421875</ele>
      </trkpt>
      <trkpt lat="50.10242" lon="4.06932">
        <ele>185.0742188</ele>
      </trkpt>
      <trkpt lat="50.10328" lon="4.06988">
        <ele>186.2890625</ele>
      </trkpt>
      <trkpt lat="50.10384" lon="4.07027">
        <ele>189.4921875</ele>
      </trkpt>
      <trkpt lat="50.10442" lon="4.07093">
        <ele>188.671875</ele>
      </trkpt>
      <trkpt lat="50.10514" lon="4.07167">
        <ele>188.4140625</ele>
      </trkpt>
      <trkpt lat="50.10597" lon="4.07246">
        <ele>189.015625</ele>
      </trkpt>
      <trkpt lat="50.106" lon="4.07246">
        <ele>189.2851563</ele>
      </trkpt>
      <trkpt lat="50.10662" lon="4.07284">
        <ele>188.6757813</ele>
      </trkpt>
      <trkpt lat="50.10739" lon="4.0731">
        <ele>186.9101563</ele>
      </trkpt>
      <trkpt lat="50.10785" lon="4.07313">
        <ele>186.7890625</ele>
      </trkpt>
      <trkpt lat="50.10786" lon="4.07313">
        <ele>186.7890625</ele>
      </trkpt>
      <trkpt lat="50.10921" lon="4.07308">
        <ele>180.828125</ele>
      </trkpt>
      <trkpt lat="50.1102" lon="4.07298">
        <ele>177.53125</ele>
      </trkpt>
      <trkpt lat="50.11086" lon="4.0734">
        <ele>177.7109375</ele>
      </trkpt>
      <trkpt lat="50.11088" lon="4.0734">
        <ele>177.7578125</ele>
      </trkpt>
      <trkpt lat="50.11127" lon="4.07346">
        <ele>178.3984375</ele>
      </trkpt>
      <trkpt lat="50.11198" lon="4.07341">
        <ele>180.5742188</ele>
      </trkpt>
      <trkpt lat="50.11198" lon="4.0734">
        <ele>180.6914063</ele>
      </trkpt>
      <trkpt lat="50.11214" lon="4.07315">
        <ele>181.7304688</ele>
      </trkpt>
      <trkpt lat="50.11243" lon="4.0728">
        <ele>183.6328125</ele>
      </trkpt>
      <trkpt lat="50.11244" lon="4.0728">
        <ele>183.6796875</ele>
      </trkpt>
      <trkpt lat="50.11356" lon="4.07277">
        <ele>182.265625</ele>
      </trkpt>
      <trkpt lat="50.1136" lon="4.07277">
        <ele>182.1171875</ele>
      </trkpt>
      <trkpt lat="50.11387" lon="4.0727">
        <ele>181.1484375</ele>
      </trkpt>
      <trkpt lat="50.11387" lon="4.07272">
        <ele>181.1484375</ele>
      </trkpt>
      <trkpt lat="50.1139" lon="4.0729">
        <ele>181.03125</ele>
      </trkpt>
      <trkpt lat="50.11392" lon="4.07292">
        <ele>180.953125</ele>
      </trkpt>
      <trkpt lat="50.11417" lon="4.07292">
        <ele>180.0820313</ele>
      </trkpt>
      <trkpt lat="50.11418" lon="4.07292">
        <ele>178.94</ele>
        <time>2011-10-07T10:11:00Z</time>
      </trkpt>
      <trkpt lat="50.11415" lon="4.07292">
        <ele>181.83</ele>
        <time>2011-10-07T10:11:16Z</time>
      </trkpt>
      <trkpt lat="50.11417" lon="4.07292">
        <ele>181.35</ele>
        <time>2011-10-07T10:11:22Z</time>
      </trkpt>
      <trkpt lat="50.11423" lon="4.073">
        <ele>181.83</ele>
        <time>2011-10-07T10:11:27Z</time>
      </trkpt>
      <trkpt lat="50.11437" lon="4.07357">
        <ele>181.35</ele>
        <time>2011-10-07T10:11:33Z</time>
      </trkpt>
      <trkpt lat="50.11446" lon="4.07439">
        <ele>179.9</ele>
        <time>2011-10-07T10:11:38Z</time>
      </trkpt>
      <trkpt lat="50.11459" lon="4.07562">
        <ele>177.02</ele>
        <time>2011-10-07T10:11:44Z</time>
      </trkpt>
      <trkpt lat="50.11461" lon="4.07584">
        <ele>177.02</ele>
        <time>2011-10-07T10:11:45Z</time>
      </trkpt>
      <trkpt lat="50.11474" lon="4.07699">
        <ele>173.17</ele>
        <time>2011-10-07T10:11:50Z</time>
      </trkpt>
      <trkpt lat="50.11478" lon="4.07721">
        <ele>173.17</ele>
        <time>2011-10-07T10:11:51Z</time>
      </trkpt>
      <trkpt lat="50.11505" lon="4.07807">
        <ele>173.66</ele>
        <time>2011-10-07T10:11:55Z</time>
      </trkpt>
      <trkpt lat="50.1156" lon="4.07924">
        <ele>173.17</ele>
        <time>2011-10-07T10:12:01Z</time>
      </trkpt>
      <trkpt lat="50.11601" lon="4.08003">
        <ele>173.66</ele>
        <time>2011-10-07T10:12:06Z</time>
      </trkpt>
      <trkpt lat="50.11606" lon="4.08017">
        <ele>174.14</ele>
        <time>2011-10-07T10:12:07Z</time>
      </trkpt>
      <trkpt lat="50.11617" lon="4.08059">
        <ele>174.14</ele>
        <time>2011-10-07T10:12:10Z</time>
      </trkpt>
      <trkpt lat="50.11606" lon="4.08125">
        <ele>175.58</ele>
        <time>2011-10-07T10:12:14Z</time>
      </trkpt>
      <trkpt lat="50.11599" lon="4.08187">
        <ele>176.54</ele>
        <time>2011-10-07T10:12:18Z</time>
      </trkpt>
      <trkpt lat="50.11601" lon="4.082">
        <ele>176.54</ele>
        <time>2011-10-07T10:12:19Z</time>
      </trkpt>
      <trkpt lat="50.11605" lon="4.08223">
        <ele>177.98</ele>
        <time>2011-10-07T10:12:21Z</time>
      </trkpt>
      <trkpt lat="50.11609" lon="4.0824">
        <ele>177.98</ele>
        <time>2011-10-07T10:12:25Z</time>
      </trkpt>
      <trkpt lat="50.1161" lon="4.08243">
        <ele>178.46</ele>
        <time>2011-10-07T10:12:29Z</time>
      </trkpt>
      <trkpt lat="50.11622" lon="4.08241">
        <ele>178.94</ele>
        <time>2011-10-07T10:12:34Z</time>
      </trkpt>
      <trkpt lat="50.11628" lon="4.08238">
        <ele>178.94</ele>
        <time>2011-10-07T10:12:35Z</time>
      </trkpt>
      <trkpt lat="50.11669" lon="4.08216">
        <ele>179.9</ele>
        <time>2011-10-07T10:12:41Z</time>
      </trkpt>
      <trkpt lat="50.11693" lon="4.08215">
        <ele>179.42</ele>
        <time>2011-10-07T10:12:44Z</time>
      </trkpt>
      <trkpt lat="50.11768" lon="4.08241">
        <ele>177.98</ele>
        <time>2011-10-07T10:12:50Z</time>
      </trkpt>
      <trkpt lat="50.11786" lon="4.08243">
        <ele>177.5</ele>
        <time>2011-10-07T10:12:52Z</time>
      </trkpt>
      <trkpt lat="50.11808" lon="4.08226">
        <ele>177.02</ele>
        <time>2011-10-07T10:12:55Z</time>
      </trkpt>
      <trkpt lat="50.11811" lon="4.08215">
        <ele>177.5</ele>
        <time>2011-10-07T10:12:56Z</time>
      </trkpt>
      <trkpt lat="50.11822" lon="4.08139">
        <ele>175.58</ele>
        <time>2011-10-07T10:13:01Z</time>
      </trkpt>
      <trkpt lat="50.11825" lon="4.08104">
        <ele>175.1</ele>
        <time>2011-10-07T10:13:03Z</time>
      </trkpt>
      <trkpt lat="50.11827" lon="4.08088">
        <ele>174.62</ele>
        <time>2011-10-07T10:13:04Z</time>
      </trkpt>
      <trkpt lat="50.11832" lon="4.08055">
        <ele>174.14</ele>
        <time>2011-10-07T10:13:06Z</time>
      </trkpt>
      <trkpt lat="50.11874" lon="4.07951">
        <ele>173.17</ele>
        <time>2011-10-07T10:13:13Z</time>
      </trkpt>
      <trkpt lat="50.11892" lon="4.07914">
        <ele>172.21</ele>
        <time>2011-10-07T10:13:17Z</time>
      </trkpt>
      <trkpt lat="50.11897" lon="4.07906">
        <ele>172.69</ele>
        <time>2011-10-07T10:13:21Z</time>
      </trkpt>
      <trkpt lat="50.11897" lon="4.07905">
        <ele>172.21</ele>
        <time>2011-10-07T10:13:29Z</time>
      </trkpt>
      <trkpt lat="50.11897" lon="4.07905">
        <ele>172.69</ele>
        <time>2011-10-07T10:13:42Z</time>
      </trkpt>
      <trkpt lat="50.11897" lon="4.07905">
        <ele>172.69</ele>
        <time>2011-10-07T10:13:59Z</time>
      </trkpt>
      <trkpt lat="50.11897" lon="4.07905">
        <ele>172.69</ele>
        <time>2011-10-07T10:14:00Z</time>
      </trkpt>
      <trkpt lat="50.11901" lon="4.07895">
        <ele>172.69</ele>
        <time>2011-10-07T10:14:03Z</time>
      </trkpt>
      <trkpt lat="50.11924" lon="4.07857">
        <ele>173.66</ele>
        <time>2011-10-07T10:14:08Z</time>
      </trkpt>
      <trkpt lat="50.11959" lon="4.07817">
        <ele>172.69</ele>
        <time>2011-10-07T10:14:13Z</time>
      </trkpt>
      <trkpt lat="50.11978" lon="4.07799">
        <ele>173.66</ele>
        <time>2011-10-07T10:14:17Z</time>
      </trkpt>
      <trkpt lat="50.11984" lon="4.07795">
        <ele>172.69</ele>
        <time>2011-10-07T10:14:23Z</time>
      </trkpt>
      <trkpt lat="50.11983" lon="4.07796">
        <ele>172.21</ele>
        <time>2011-10-07T10:14:33Z</time>
      </trkpt>
      <trkpt lat="50.11983" lon="4.07796">
        <ele>172.21</ele>
        <time>2011-10-07T10:14:34Z</time>
      </trkpt>
      <trkpt lat="50.11983" lon="4.07796">
        <ele>173.17</ele>
        <time>2011-10-07T10:14:47Z</time>
      </trkpt>
      <trkpt lat="50.11983" lon="4.07796">
        <ele>172.69</ele>
        <time>2011-10-07T10:15:02Z</time>
      </trkpt>
      <trkpt lat="50.11984" lon="4.07793">
        <ele>171.73</ele>
        <time>2011-10-07T10:15:05Z</time>
      </trkpt>
      <trkpt lat="50.11997" lon="4.07809">
        <ele>172.21</ele>
        <time>2011-10-07T10:15:10Z</time>
      </trkpt>
      <trkpt lat="50.12023" lon="4.07867">
        <ele>172.21</ele>
        <time>2011-10-07T10:15:16Z</time>
      </trkpt>
      <trkpt lat="50.12065" lon="4.0796">
        <ele>172.21</ele>
        <time>2011-10-07T10:15:24Z</time>
      </trkpt>
      <trkpt lat="50.12094" lon="4.08006">
        <ele>172.21</ele>
        <time>2011-10-07T10:15:29Z</time>
      </trkpt>
      <trkpt lat="50.12122" lon="4.08017">
        <ele>174.62</ele>
        <time>2011-10-07T10:15:33Z</time>
      </trkpt>
      <trkpt lat="50.12156" lon="4.08008">
        <ele>177.5</ele>
        <time>2011-10-07T10:15:37Z</time>
      </trkpt>
      <trkpt lat="50.12174" lon="4.08006">
        <ele>177.98</ele>
        <time>2011-10-07T10:15:39Z</time>
      </trkpt>
      <trkpt lat="50.12211" lon="4.08024">
        <ele>179.42</ele>
        <time>2011-10-07T10:15:43Z</time>
      </trkpt>
      <trkpt lat="50.12235" lon="4.08051">
        <ele>180.38</ele>
        <time>2011-10-07T10:17:09Z</time>
      </trkpt>
      <trkpt lat="50.12239" lon="4.08055">
        <ele>181.35</ele>
        <time>2011-10-07T10:17:11Z</time>
      </trkpt>
      <trkpt lat="50.12263" lon="4.08076">
        <ele>182.31</ele>
        <time>2011-10-07T10:17:17Z</time>
      </trkpt>
      <trkpt lat="50.12298" lon="4.08114">
        <ele>184.71</ele>
        <time>2011-10-07T10:17:24Z</time>
      </trkpt>
      <trkpt lat="50.12303" lon="4.08122">
        <ele>185.19</ele>
        <time>2011-10-07T10:17:25Z</time>
      </trkpt>
      <trkpt lat="50.12331" lon="4.0816">
        <ele>185.67</ele>
        <time>2011-10-07T10:17:31Z</time>
      </trkpt>
      <trkpt lat="50.12336" lon="4.08164">
        <ele>186.15</ele>
        <time>2011-10-07T10:17:32Z</time>
      </trkpt>
      <trkpt lat="50.1237" lon="4.08174">
        <ele>185.67</ele>
        <time>2011-10-07T10:17:40Z</time>
      </trkpt>
      <trkpt lat="50.12378" lon="4.08176">
        <ele>186.15</ele>
        <time>2011-10-07T10:17:45Z</time>
      </trkpt>
      <trkpt lat="50.12376" lon="4.08195">
        <ele>187.11</ele>
        <time>2011-10-07T10:17:51Z</time>
      </trkpt>
      <trkpt lat="50.12387" lon="4.08238">
        <ele>188.56</ele>
        <time>2011-10-07T10:17:58Z</time>
      </trkpt>
      <trkpt lat="50.12397" lon="4.08269">
        <ele>191.44</ele>
        <time>2011-10-07T10:18:02Z</time>
      </trkpt>
      <trkpt lat="50.12408" lon="4.08307">
        <ele>194.8</ele>
        <time>2011-10-07T10:18:06Z</time>
      </trkpt>
      <trkpt lat="50.12412" lon="4.08317">
        <ele>195.77</ele>
        <time>2011-10-07T10:18:07Z</time>
      </trkpt>
      <trkpt lat="50.12458" lon="4.08375">
        <ele>198.65</ele>
        <time>2011-10-07T10:18:12Z</time>
      </trkpt>
      <trkpt lat="50.12477" lon="4.08406">
        <ele>200.09</ele>
        <time>2011-10-07T10:18:15Z</time>
      </trkpt>
      <trkpt lat="50.12491" lon="4.08436">
        <ele>201.53</ele>
        <time>2011-10-07T10:18:18Z</time>
      </trkpt>
      <trkpt lat="50.12513" lon="4.08501">
        <ele>203.94</ele>
        <time>2011-10-07T10:18:24Z</time>
      </trkpt>
      <trkpt lat="50.12535" lon="4.08581">
        <ele>204.42</ele>
        <time>2011-10-07T10:18:29Z</time>
      </trkpt>
      <trkpt lat="50.12565" lon="4.08698">
        <ele>201.53</ele>
        <time>2011-10-07T10:18:35Z</time>
      </trkpt>
      <trkpt lat="50.12572" lon="4.08727">
        <ele>200.57</ele>
        <time>2011-10-07T10:18:37Z</time>
      </trkpt>
      <trkpt lat="50.12578" lon="4.08746">
        <ele>198.65</ele>
        <time>2011-10-07T10:18:42Z</time>
      </trkpt>
      <trkpt lat="50.12578" lon="4.08746">
        <ele>199.13</ele>
        <time>2011-10-07T10:18:47Z</time>
      </trkpt>
      <trkpt lat="50.12584" lon="4.08754">
        <ele>199.61</ele>
        <time>2011-10-07T10:18:51Z</time>
      </trkpt>
      <trkpt lat="50.12601" lon="4.08781">
        <ele>202.49</ele>
        <time>2011-10-07T10:18:55Z</time>
      </trkpt>
      <trkpt lat="50.12635" lon="4.08842">
        <ele>204.42</ele>
        <time>2011-10-07T10:19:00Z</time>
      </trkpt>
      <trkpt lat="50.12666" lon="4.08932">
        <ele>203.46</ele>
        <time>2011-10-07T10:19:05Z</time>
      </trkpt>
      <trkpt lat="50.1268" lon="4.08988">
        <ele>206.82</ele>
        <time>2011-10-07T10:19:08Z</time>
      </trkpt>
      <trkpt lat="50.12689" lon="4.09027">
        <ele>207.78</ele>
        <time>2011-10-07T10:19:10Z</time>
      </trkpt>
      <trkpt lat="50.12706" lon="4.09101">
        <ele>207.78</ele>
        <time>2011-10-07T10:19:14Z</time>
      </trkpt>
      <trkpt lat="50.12703" lon="4.09168">
        <ele>209.22</ele>
        <time>2011-10-07T10:19:18Z</time>
      </trkpt>
      <trkpt lat="50.127" lon="4.09204">
        <ele>210.67</ele>
        <time>2011-10-07T10:19:20Z</time>
      </trkpt>
      <trkpt lat="50.12701" lon="4.09242">
        <ele>211.15</ele>
        <time>2011-10-07T10:19:22Z</time>
      </trkpt>
      <trkpt lat="50.12707" lon="4.09371">
        <ele>214.51</ele>
        <time>2011-10-07T10:19:28Z</time>
      </trkpt>
      <trkpt lat="50.12708" lon="4.09391">
        <ele>214.51</ele>
        <time>2011-10-07T10:19:29Z</time>
      </trkpt>
      <trkpt lat="50.12709" lon="4.09409">
        <ele>214.03</ele>
        <time>2011-10-07T10:19:30Z</time>
      </trkpt>
      <trkpt lat="50.12724" lon="4.09461">
        <ele>215.95</ele>
        <time>2011-10-07T10:19:33Z</time>
      </trkpt>
      <trkpt lat="50.12758" lon="4.09532">
        <ele>219.8</ele>
        <time>2011-10-07T10:19:37Z</time>
      </trkpt>
      <trkpt lat="50.12796" lon="4.09628">
        <ele>222.68</ele>
        <time>2011-10-07T10:19:42Z</time>
      </trkpt>
      <trkpt lat="50.12811" lon="4.09667">
        <ele>223.64</ele>
        <time>2011-10-07T10:19:44Z</time>
      </trkpt>
      <trkpt lat="50.12873" lon="4.09802">
        <ele>227.01</ele>
        <time>2011-10-07T10:19:51Z</time>
      </trkpt>
      <trkpt lat="50.1293" lon="4.09916">
        <ele>227.97</ele>
        <time>2011-10-07T10:19:57Z</time>
      </trkpt>
      <trkpt lat="50.1296" lon="4.09975">
        <ele>226.53</ele>
        <time>2011-10-07T10:20:01Z</time>
      </trkpt>
      <trkpt lat="50.12992" lon="4.10044">
        <ele>227.49</ele>
        <time>2011-10-07T10:20:07Z</time>
      </trkpt>
      <trkpt lat="50.1303" lon="4.10139">
        <ele>227.49</ele>
        <time>2011-10-07T10:20:13Z</time>
      </trkpt>
      <trkpt lat="50.13056" lon="4.10204">
        <ele>228.45</ele>
        <time>2011-10-07T10:20:17Z</time>
      </trkpt>
      <trkpt lat="50.13102" lon="4.10292">
        <ele>227.01</ele>
        <time>2011-10-07T10:20:23Z</time>
      </trkpt>
      <trkpt lat="50.13131" lon="4.10352">
        <ele>224.61</ele>
        <time>2011-10-07T10:20:27Z</time>
      </trkpt>
      <trkpt lat="50.13137" lon="4.10364">
        <ele>223.64</ele>
        <time>2011-10-07T10:20:28Z</time>
      </trkpt>
      <trkpt lat="50.13146" lon="4.10387">
        <ele>224.61</ele>
        <time>2011-10-07T10:20:30Z</time>
      </trkpt>
      <trkpt lat="50.13155" lon="4.1043">
        <ele>225.57</ele>
        <time>2011-10-07T10:20:33Z</time>
      </trkpt>
      <trkpt lat="50.13153" lon="4.10448">
        <ele>226.05</ele>
        <time>2011-10-07T10:20:34Z</time>
      </trkpt>
      <trkpt lat="50.13139" lon="4.10526">
        <ele>228.45</ele>
        <time>2011-10-07T10:20:38Z</time>
      </trkpt>
      <trkpt lat="50.13128" lon="4.1058">
        <ele>230.85</ele>
        <time>2011-10-07T10:20:41Z</time>
      </trkpt>
      <trkpt lat="50.13113" lon="4.10622">
        <ele>232.78</ele>
        <time>2011-10-07T10:20:44Z</time>
      </trkpt>
      <trkpt lat="50.13104" lon="4.10646">
        <ele>233.74</ele>
        <time>2011-10-07T10:20:46Z</time>
      </trkpt>
      <trkpt lat="50.13099" lon="4.10669">
        <ele>235.18</ele>
        <time>2011-10-07T10:20:48Z</time>
      </trkpt>
      <trkpt lat="50.13097" lon="4.10694">
        <ele>236.14</ele>
        <time>2011-10-07T10:20:50Z</time>
      </trkpt>
      <trkpt lat="50.131" lon="4.10725">
        <ele>236.14</ele>
        <time>2011-10-07T10:20:52Z</time>
      </trkpt>
      <trkpt lat="50.13122" lon="4.10819">
        <ele>236.62</ele>
        <time>2011-10-07T10:20:57Z</time>
      </trkpt>
      <trkpt lat="50.13144" lon="4.10923">
        <ele>238.54</ele>
        <time>2011-10-07T10:21:03Z</time>
      </trkpt>
      <trkpt lat="50.13162" lon="4.11015">
        <ele>236.14</ele>
        <time>2011-10-07T10:21:08Z</time>
      </trkpt>
      <trkpt lat="50.13165" lon="4.11029">
        <ele>235.66</ele>
        <time>2011-10-07T10:21:09Z</time>
      </trkpt>
      <trkpt lat="50.13181" lon="4.11068">
        <ele>235.18</ele>
        <time>2011-10-07T10:21:13Z</time>
      </trkpt>
      <trkpt lat="50.13188" lon="4.11071">
        <ele>235.18</ele>
        <time>2011-10-07T10:21:14Z</time>
      </trkpt>
      <trkpt lat="50.13244" lon="4.11089">
        <ele>237.58</ele>
        <time>2011-10-07T10:21:20Z</time>
      </trkpt>
      <trkpt lat="50.13298" lon="4.11107">
        <ele>236.14</ele>
        <time>2011-10-07T10:21:24Z</time>
      </trkpt>
      <trkpt lat="50.1335" lon="4.11123">
        <ele>237.58</ele>
        <time>2011-10-07T10:21:29Z</time>
      </trkpt>
      <trkpt lat="50.134" lon="4.11135">
        <ele>239.02</ele>
        <time>2011-10-07T10:21:34Z</time>
      </trkpt>
      <trkpt lat="50.13472" lon="4.11124">
        <ele>241.91</ele>
        <time>2011-10-07T10:21:40Z</time>
      </trkpt>
      <trkpt lat="50.13532" lon="4.11109">
        <ele>241.91</ele>
        <time>2011-10-07T10:21:45Z</time>
      </trkpt>
      <trkpt lat="50.13619" lon="4.11093">
        <ele>239.02</ele>
        <time>2011-10-07T10:21:52Z</time>
      </trkpt>
      <trkpt lat="50.1368" lon="4.11082">
        <ele>237.58</ele>
        <time>2011-10-07T10:21:56Z</time>
      </trkpt>
      <trkpt lat="50.13763" lon="4.11069">
        <ele>239.99</ele>
        <time>2011-10-07T10:22:01Z</time>
      </trkpt>
      <trkpt lat="50.13856" lon="4.1105">
        <ele>243.35</ele>
        <time>2011-10-07T10:22:07Z</time>
      </trkpt>
      <trkpt lat="50.13951" lon="4.11033">
        <ele>242.39</ele>
        <time>2011-10-07T10:22:14Z</time>
      </trkpt>
      <trkpt lat="50.14026" lon="4.1102">
        <ele>239.02</ele>
        <time>2011-10-07T10:22:20Z</time>
      </trkpt>
      <trkpt lat="50.14092" lon="4.11008">
        <ele>238.06</ele>
        <time>2011-10-07T10:22:26Z</time>
      </trkpt>
      <trkpt lat="50.14157" lon="4.10997">
        <ele>235.18</ele>
        <time>2011-10-07T10:22:31Z</time>
      </trkpt>
      <trkpt lat="50.14169" lon="4.10995">
        <ele>234.22</ele>
        <time>2011-10-07T10:22:32Z</time>
      </trkpt>
      <trkpt lat="50.14187" lon="4.10997">
        <ele>233.74</ele>
        <time>2011-10-07T10:22:34Z</time>
      </trkpt>
      <trkpt lat="50.14201" lon="4.11021">
        <ele>234.22</ele>
        <time>2011-10-07T10:22:37Z</time>
      </trkpt>
      <trkpt lat="50.14203" lon="4.11033">
        <ele>234.7</ele>
        <time>2011-10-07T10:22:38Z</time>
      </trkpt>
      <trkpt lat="50.14215" lon="4.11117">
        <ele>237.58</ele>
        <time>2011-10-07T10:22:43Z</time>
      </trkpt>
      <trkpt lat="50.14225" lon="4.1122">
        <ele>240.95</ele>
        <time>2011-10-07T10:22:48Z</time>
      </trkpt>
      <trkpt lat="50.14227" lon="4.11261">
        <ele>241.43</ele>
        <time>2011-10-07T10:22:50Z</time>
      </trkpt>
      <trkpt lat="50.14231" lon="4.11349">
        <ele>243.35</ele>
        <time>2011-10-07T10:22:54Z</time>
      </trkpt>
      <trkpt lat="50.14236" lon="4.11438">
        <ele>242.87</ele>
        <time>2011-10-07T10:22:59Z</time>
      </trkpt>
      <trkpt lat="50.14237" lon="4.11451">
        <ele>242.87</ele>
        <time>2011-10-07T10:23:00Z</time>
      </trkpt>
      <trkpt lat="50.14251" lon="4.11474">
        <ele>241.91</ele>
        <time>2011-10-07T10:23:04Z</time>
      </trkpt>
      <trkpt lat="50.14272" lon="4.11462">
        <ele>240.95</ele>
        <time>2011-10-07T10:23:08Z</time>
      </trkpt>
      <trkpt lat="50.14317" lon="4.11407">
        <ele>241.43</ele>
        <time>2011-10-07T10:23:14Z</time>
      </trkpt>
      <trkpt lat="50.14336" lon="4.11389">
        <ele>241.43</ele>
        <time>2011-10-07T10:23:16Z</time>
      </trkpt>
      <trkpt lat="50.14358" lon="4.11376">
        <ele>242.39</ele>
        <time>2011-10-07T10:23:18Z</time>
      </trkpt>
      <trkpt lat="50.14469" lon="4.11351">
        <ele>241.91</ele>
        <time>2011-10-07T10:23:24Z</time>
      </trkpt>
      <trkpt lat="50.14485" lon="4.11347">
        <ele>243.35</ele>
        <time>2011-10-07T10:23:25Z</time>
      </trkpt>
      <trkpt lat="50.14554" lon="4.11301">
        <ele>243.35</ele>
        <time>2011-10-07T10:23:30Z</time>
      </trkpt>
      <trkpt lat="50.14565" lon="4.11287">
        <ele>244.31</ele>
        <time>2011-10-07T10:23:31Z</time>
      </trkpt>
      <trkpt lat="50.1463" lon="4.1117">
        <ele>243.83</ele>
        <time>2011-10-07T10:23:37Z</time>
      </trkpt>
      <trkpt lat="50.14661" lon="4.11112">
        <ele>240.47</ele>
        <time>2011-10-07T10:23:40Z</time>
      </trkpt>
      <trkpt lat="50.14671" lon="4.11092">
        <ele>240.47</ele>
        <time>2011-10-07T10:23:41Z</time>
      </trkpt>
      <trkpt lat="50.14736" lon="4.10986">
        <ele>239.02</ele>
        <time>2011-10-07T10:23:47Z</time>
      </trkpt>
      <trkpt lat="50.14793" lon="4.10901">
        <ele>239.99</ele>
        <time>2011-10-07T10:23:52Z</time>
      </trkpt>
      <trkpt lat="50.14842" lon="4.10817">
        <ele>242.87</ele>
        <time>2011-10-07T10:23:57Z</time>
      </trkpt>
      <trkpt lat="50.14875" lon="4.10751">
        <ele>241.43</ele>
        <time>2011-10-07T10:24:01Z</time>
      </trkpt>
      <trkpt lat="50.14906" lon="4.10676">
        <ele>238.06</ele>
        <time>2011-10-07T10:24:05Z</time>
      </trkpt>
      <trkpt lat="50.14925" lon="4.10621">
        <ele>234.22</ele>
        <time>2011-10-07T10:24:08Z</time>
      </trkpt>
      <trkpt lat="50.14936" lon="4.10592">
        <ele>232.3</ele>
        <time>2011-10-07T10:24:10Z</time>
      </trkpt>
      <trkpt lat="50.14974" lon="4.10555">
        <ele>231.81</ele>
        <time>2011-10-07T10:24:15Z</time>
      </trkpt>
      <trkpt lat="50.14986" lon="4.10557">
        <ele>232.3</ele>
        <time>2011-10-07T10:24:16Z</time>
      </trkpt>
      <trkpt lat="50.15046" lon="4.10589">
        <ele>233.74</ele>
        <time>2011-10-07T10:24:21Z</time>
      </trkpt>
      <trkpt lat="50.15086" lon="4.10595">
        <ele>234.7</ele>
        <time>2011-10-07T10:24:25Z</time>
      </trkpt>
      <trkpt lat="50.15122" lon="4.10587">
        <ele>235.18</ele>
        <time>2011-10-07T10:24:29Z</time>
      </trkpt>
      <trkpt lat="50.15159" lon="4.10595">
        <ele>235.66</ele>
        <time>2011-10-07T10:24:35Z</time>
      </trkpt>
      <trkpt lat="50.15167" lon="4.10597">
        <ele>235.66</ele>
        <time>2011-10-07T10:24:38Z</time>
      </trkpt>
      <trkpt lat="50.15167" lon="4.10598">
        <ele>236.14</ele>
        <time>2011-10-07T10:24:44Z</time>
      </trkpt>
      <trkpt lat="50.15177" lon="4.10599">
        <ele>237.1</ele>
        <time>2011-10-07T10:24:48Z</time>
      </trkpt>
      <trkpt lat="50.15217" lon="4.10611">
        <ele>239.02</ele>
        <time>2011-10-07T10:24:53Z</time>
      </trkpt>
      <trkpt lat="50.15255" lon="4.10621">
        <ele>239.02</ele>
        <time>2011-10-07T10:24:56Z</time>
      </trkpt>
      <trkpt lat="50.15297" lon="4.10608">
        <ele>240.95</ele>
        <time>2011-10-07T10:25:00Z</time>
      </trkpt>
      <trkpt lat="50.15361" lon="4.1056">
        <ele>239.51</ele>
        <time>2011-10-07T10:25:06Z</time>
      </trkpt>
      <trkpt lat="50.15383" lon="4.10547">
        <ele>238.06</ele>
        <time>2011-10-07T10:25:09Z</time>
      </trkpt>
      <trkpt lat="50.15402" lon="4.10539">
        <ele>239.02</ele>
        <time>2011-10-07T10:25:14Z</time>
      </trkpt>
      <trkpt lat="50.15421" lon="4.1051">
        <ele>239.51</ele>
        <time>2011-10-07T10:25:19Z</time>
      </trkpt>
      <trkpt lat="50.1545" lon="4.10471">
        <ele>239.99</ele>
        <time>2011-10-07T10:25:23Z</time>
      </trkpt>
      <trkpt lat="50.15458" lon="4.10459">
        <ele>239.99</ele>
        <time>2011-10-07T10:25:24Z</time>
      </trkpt>
      <trkpt lat="50.15473" lon="4.10392">
        <ele>241.43</ele>
        <time>2011-10-07T10:25:28Z</time>
      </trkpt>
      <trkpt lat="50.15486" lon="4.10279">
        <ele>242.87</ele>
        <time>2011-10-07T10:25:33Z</time>
      </trkpt>
      <trkpt lat="50.15492" lon="4.10147">
        <ele>245.27</ele>
        <time>2011-10-07T10:25:38Z</time>
      </trkpt>
      <trkpt lat="50.15496" lon="4.09987">
        <ele>245.27</ele>
        <time>2011-10-07T10:25:44Z</time>
      </trkpt>
      <trkpt lat="50.15504" lon="4.09839">
        <ele>246.23</ele>
        <time>2011-10-07T10:25:50Z</time>
      </trkpt>
      <trkpt lat="50.15527" lon="4.09676">
        <ele>246.72</ele>
        <time>2011-10-07T10:25:56Z</time>
      </trkpt>
      <trkpt lat="50.15561" lon="4.09446">
        <ele>245.27</ele>
        <time>2011-10-07T10:26:04Z</time>
      </trkpt>
      <trkpt lat="50.15591" lon="4.0931">
        <ele>242.87</ele>
        <time>2011-10-07T10:26:09Z</time>
      </trkpt>
      <trkpt lat="50.1561" lon="4.09241">
        <ele>241.43</ele>
        <time>2011-10-07T10:26:12Z</time>
      </trkpt>
      <trkpt lat="50.1562" lon="4.09205">
        <ele>239.99</ele>
        <time>2011-10-07T10:26:14Z</time>
      </trkpt>
      <trkpt lat="50.15649" lon="4.09165">
        <ele>239.99</ele>
        <time>2011-10-07T10:26:18Z</time>
      </trkpt>
      <trkpt lat="50.15668" lon="4.09162">
        <ele>239.51</ele>
        <time>2011-10-07T10:26:20Z</time>
      </trkpt>
      <trkpt lat="50.15733" lon="4.09167">
        <ele>240.47</ele>
        <time>2011-10-07T10:26:26Z</time>
      </trkpt>
      <trkpt lat="50.15769" lon="4.0917">
        <ele>239.99</ele>
        <time>2011-10-07T10:26:29Z</time>
      </trkpt>
      <trkpt lat="50.15797" lon="4.09145">
        <ele>240.47</ele>
        <time>2011-10-07T10:26:33Z</time>
      </trkpt>
      <trkpt lat="50.15814" lon="4.09125">
        <ele>240.47</ele>
        <time>2011-10-07T10:26:37Z</time>
      </trkpt>
      <trkpt lat="50.15825" lon="4.09127">
        <ele>239.99</ele>
        <time>2011-10-07T10:26:39Z</time>
      </trkpt>
      <trkpt lat="50.15837" lon="4.09131">
        <ele>240.47</ele>
        <time>2011-10-07T10:26:41Z</time>
      </trkpt>
      <trkpt lat="50.15889" lon="4.0913">
        <ele>238.06</ele>
        <time>2011-10-07T10:26:46Z</time>
      </trkpt>
      <trkpt lat="50.15993" lon="4.09131">
        <ele>235.66</ele>
        <time>2011-10-07T10:26:53Z</time>
      </trkpt>
      <trkpt lat="50.16006" lon="4.09132">
        <ele>235.18</ele>
        <time>2011-10-07T10:26:54Z</time>
      </trkpt>
      <trkpt lat="50.16073" lon="4.09148">
        <ele>232.3</ele>
        <time>2011-10-07T10:26:59Z</time>
      </trkpt>
      <trkpt lat="50.16086" lon="4.09151">
        <ele>231.81</ele>
        <time>2011-10-07T10:27:00Z</time>
      </trkpt>
      <trkpt lat="50.16166" lon="4.09143">
        <ele>228.45</ele>
        <time>2011-10-07T10:27:06Z</time>
      </trkpt>
      <trkpt lat="50.1623" lon="4.09141">
        <ele>225.57</ele>
        <time>2011-10-07T10:27:11Z</time>
      </trkpt>
      <trkpt lat="50.16301" lon="4.09131">
        <ele>222.2</ele>
        <time>2011-10-07T10:27:16Z</time>
      </trkpt>
      <trkpt lat="50.16331" lon="4.09127">
        <ele>221.24</ele>
        <time>2011-10-07T10:27:18Z</time>
      </trkpt>
      <trkpt lat="50.16413" lon="4.09125">
        <ele>218.84</ele>
        <time>2011-10-07T10:27:24Z</time>
      </trkpt>
      <trkpt lat="50.16467" lon="4.09135">
        <ele>215.47</ele>
        <time>2011-10-07T10:27:28Z</time>
      </trkpt>
      <trkpt lat="50.16512" lon="4.09134">
        <ele>213.07</ele>
        <time>2011-10-07T10:27:32Z</time>
      </trkpt>
      <trkpt lat="50.16562" lon="4.09113">
        <ele>210.67</ele>
        <time>2011-10-07T10:27:36Z</time>
      </trkpt>
      <trkpt lat="50.16574" lon="4.09106">
        <ele>210.19</ele>
        <time>2011-10-07T10:27:37Z</time>
      </trkpt>
      <trkpt lat="50.16596" lon="4.09094">
        <ele>208.74</ele>
        <time>2011-10-07T10:27:39Z</time>
      </trkpt>
      <trkpt lat="50.16632" lon="4.09094">
        <ele>208.74</ele>
        <time>2011-10-07T10:27:43Z</time>
      </trkpt>
      <trkpt lat="50.16687" lon="4.09097">
        <ele>210.19</ele>
        <time>2011-10-07T10:27:49Z</time>
      </trkpt>
      <trkpt lat="50.167" lon="4.0907">
        <ele>211.15</ele>
        <time>2011-10-07T10:27:51Z</time>
      </trkpt>
      <trkpt lat="50.16707" lon="4.09054">
        <ele>211.63</ele>
        <time>2011-10-07T10:27:52Z</time>
      </trkpt>
      <trkpt lat="50.16719" lon="4.09017">
        <ele>213.07</ele>
        <time>2011-10-07T10:27:54Z</time>
      </trkpt>
      <trkpt lat="50.16732" lon="4.08984">
        <ele>213.55</ele>
        <time>2011-10-07T10:27:56Z</time>
      </trkpt>
      <trkpt lat="50.16766" lon="4.08944">
        <ele>214.03</ele>
        <time>2011-10-07T10:28:01Z</time>
      </trkpt>
      <trkpt lat="50.16777" lon="4.08944">
        <ele>214.03</ele>
        <time>2011-10-07T10:28:02Z</time>
      </trkpt>
      <trkpt lat="50.16855" lon="4.08958">
        <ele>213.07</ele>
        <time>2011-10-07T10:28:08Z</time>
      </trkpt>
      <trkpt lat="50.16934" lon="4.08971">
        <ele>211.63</ele>
        <time>2011-10-07T10:28:14Z</time>
      </trkpt>
      <trkpt lat="50.16953" lon="4.08977">
        <ele>211.15</ele>
        <time>2011-10-07T10:28:16Z</time>
      </trkpt>
      <trkpt lat="50.16977" lon="4.08998">
        <ele>210.19</ele>
        <time>2011-10-07T10:28:19Z</time>
      </trkpt>
      <trkpt lat="50.1699" lon="4.0902">
        <ele>209.22</ele>
        <time>2011-10-07T10:28:21Z</time>
      </trkpt>
      <trkpt lat="50.17008" lon="4.0905">
        <ele>207.3</ele>
        <time>2011-10-07T10:28:24Z</time>
      </trkpt>
      <trkpt lat="50.17021" lon="4.09065">
        <ele>205.86</ele>
        <time>2011-10-07T10:28:26Z</time>
      </trkpt>
      <trkpt lat="50.17049" lon="4.09095">
        <ele>203.94</ele>
        <time>2011-10-07T10:28:30Z</time>
      </trkpt>
      <trkpt lat="50.17086" lon="4.09123">
        <ele>200.09</ele>
        <time>2011-10-07T10:28:35Z</time>
      </trkpt>
      <trkpt lat="50.17096" lon="4.09128">
        <ele>199.61</ele>
        <time>2011-10-07T10:28:36Z</time>
      </trkpt>
      <trkpt lat="50.17135" lon="4.09146">
        <ele>198.17</ele>
        <time>2011-10-07T10:28:40Z</time>
      </trkpt>
      <trkpt lat="50.17183" lon="4.09164">
        <ele>197.21</ele>
        <time>2011-10-07T10:28:46Z</time>
      </trkpt>
      <trkpt lat="50.17276" lon="4.092">
        <ele>196.25</ele>
        <time>2011-10-07T10:28:59Z</time>
      </trkpt>
      <trkpt lat="50.17324" lon="4.09215">
        <ele>195.77</ele>
        <time>2011-10-07T10:29:07Z</time>
      </trkpt>
      <trkpt lat="50.17358" lon="4.09216">
        <ele>195.77</ele>
        <time>2011-10-07T10:29:14Z</time>
      </trkpt>
      <trkpt lat="50.17362" lon="4.09216">
        <ele>195.77</ele>
        <time>2011-10-07T10:29:15Z</time>
      </trkpt>
      <trkpt lat="50.17395" lon="4.09206">
        <ele>195.77</ele>
        <time>2011-10-07T10:29:23Z</time>
      </trkpt>
      <trkpt lat="50.17412" lon="4.09197">
        <ele>194.32</ele>
        <time>2011-10-07T10:29:27Z</time>
      </trkpt>
      <trkpt lat="50.17418" lon="4.09196">
        <ele>196.73</ele>
        <time>2011-10-07T10:29:28Z</time>
      </trkpt>
      <trkpt lat="50.17424" lon="4.09194">
        <ele>193.84</ele>
        <time>2011-10-07T10:29:30Z</time>
      </trkpt>
      <trkpt lat="50.17436" lon="4.09191">
        <ele>191.92</ele>
        <time>2011-10-07T10:29:33Z</time>
      </trkpt>
      <trkpt lat="50.17438" lon="4.09191">
        <ele>194.32</ele>
        <time>2011-10-07T10:29:34Z</time>
      </trkpt>
      <trkpt lat="50.17458" lon="4.09187">
        <ele>194.32</ele>
        <time>2011-10-07T10:29:40Z</time>
      </trkpt>
      <trkpt lat="50.17466" lon="4.0918">
        <ele>193.84</ele>
        <time>2011-10-07T10:29:46Z</time>
      </trkpt>
      <trkpt lat="50.17466" lon="4.09179">
        <ele>194.32</ele>
        <time>2011-10-07T10:29:57Z</time>
      </trkpt>
      <trkpt lat="50.17466" lon="4.09178">
        <ele>191.44</ele>
        <time>2011-10-07T10:30:01Z</time>
      </trkpt>
      <trkpt lat="50.17466" lon="4.09178">
        <ele>194.8</ele>
        <time>2011-10-07T10:30:02Z</time>
      </trkpt>
      <trkpt lat="50.17466" lon="4.09178">
        <ele>194.8</ele>
        <time>2011-10-07T10:30:07Z</time>
      </trkpt>
      <trkpt lat="50.17466" lon="4.09178">
        <ele>193.36</ele>
        <time>2011-10-07T10:30:09Z</time>
      </trkpt>
      <trkpt lat="50.17466" lon="4.09178">
        <ele>195.77</ele>
        <time>2011-10-07T10:30:23Z</time>
      </trkpt>
      <trkpt lat="50.17466" lon="4.09178">
        <ele>192.4</ele>
        <time>2011-10-07T10:30:24Z</time>
      </trkpt>
      <trkpt lat="50.17466" lon="4.09178">
        <ele>194.32</ele>
        <time>2011-10-07T10:30:25Z</time>
      </trkpt>
      <trkpt lat="50.17466" lon="4.09178">
        <ele>194.32</ele>
        <time>2011-10-07T10:30:28Z</time>
      </trkpt>
    </trkseg>
  </trk>
</gpx>